<?xml version="1.0" encoding="UTF-8"?>
<gpx xmlns="http://www.topografix.com/GPX/1/1" xmlns:xsi="http://www.w3.org/2001/XMLSchema-instance" version="1.1" xsi:schemaLocation="http://www.topografix.com/GPX/1/1 http://www.topografix.com/GPX/1/1/gpx.xsd">
  <metadata>
    <name>Last TRI - Olympic Aquabike</name>
  </metadata>
  <trk>
    <name>Last TRI - Olympic Aquabike</name>
    <trkseg>
      <trkpt lat="42.731758" lon="-83.087746">
        <ele>248.887443</ele>
        <time>2024-09-22T09:30:00.000Z</time>
      </trkpt>
      <trkpt lat="42.732225" lon="-83.087728">
        <ele>248.887453</ele>
        <time>2024-09-22T09:30:05.000Z</time>
      </trkpt>
      <trkpt lat="42.732821" lon="-83.087715">
        <ele>249.036659</ele>
        <time>2024-09-22T09:30:12.000Z</time>
      </trkpt>
      <trkpt lat="42.732943" lon="-83.087684">
        <ele>249.148648</ele>
        <time>2024-09-22T09:30:13.000Z</time>
      </trkpt>
      <trkpt lat="42.733363" lon="-83.087683">
        <ele>249.527003</ele>
        <time>2024-09-22T09:30:18.000Z</time>
      </trkpt>
      <trkpt lat="42.733468" lon="-83.087682">
        <ele>249.625801</ele>
        <time>2024-09-22T09:30:19.000Z</time>
      </trkpt>
      <trkpt lat="42.733478" lon="-83.08764">
        <ele>249.654169</ele>
        <time>2024-09-22T09:30:19.000Z</time>
      </trkpt>
      <trkpt lat="42.733787" lon="-83.084284">
        <ele>251.530795</ele>
        <time>2024-09-22T09:30:47.000Z</time>
      </trkpt>
      <trkpt lat="42.733898" lon="-83.083682">
        <ele>251.700788</ele>
        <time>2024-09-22T09:30:52.000Z</time>
      </trkpt>
      <trkpt lat="42.734049" lon="-83.083028">
        <ele>251.695998</ele>
        <time>2024-09-22T09:30:58.000Z</time>
      </trkpt>
      <trkpt lat="42.734268" lon="-83.082452">
        <ele>251.691259</ele>
        <time>2024-09-22T09:31:03.000Z</time>
      </trkpt>
      <trkpt lat="42.734514" lon="-83.081931">
        <ele>251.686839</ele>
        <time>2024-09-22T09:31:08.000Z</time>
      </trkpt>
      <trkpt lat="42.734868" lon="-83.081342">
        <ele>251.712759</ele>
        <time>2024-09-22T09:31:14.000Z</time>
      </trkpt>
      <trkpt lat="42.735348" lon="-83.080769">
        <ele>251.755444</ele>
        <time>2024-09-22T09:31:21.000Z</time>
      </trkpt>
      <trkpt lat="42.738175" lon="-83.078331">
        <ele>252.218251</ele>
        <time>2024-09-22T09:31:58.000Z</time>
      </trkpt>
      <trkpt lat="42.738281" lon="-83.078245">
        <ele>252.205507</ele>
        <time>2024-09-22T09:31:59.000Z</time>
      </trkpt>
      <trkpt lat="42.738567" lon="-83.077892">
        <ele>252.169655</ele>
        <time>2024-09-22T09:32:03.000Z</time>
      </trkpt>
      <trkpt lat="42.738758" lon="-83.077543">
        <ele>252.138047</ele>
        <time>2024-09-22T09:32:07.000Z</time>
      </trkpt>
      <trkpt lat="42.738903" lon="-83.077147">
        <ele>251.891645</ele>
        <time>2024-09-22T09:32:11.000Z</time>
      </trkpt>
      <trkpt lat="42.738998" lon="-83.076756">
        <ele>251.422335</ele>
        <time>2024-09-22T09:32:14.000Z</time>
      </trkpt>
      <trkpt lat="42.739016" lon="-83.076592">
        <ele>251.238246</ele>
        <time>2024-09-22T09:32:15.000Z</time>
      </trkpt>
      <trkpt lat="42.739071" lon="-83.076198">
        <ele>250.779049</ele>
        <time>2024-09-22T09:32:18.000Z</time>
      </trkpt>
      <trkpt lat="42.739062" lon="-83.075715">
        <ele>250.21864</ele>
        <time>2024-09-22T09:32:22.000Z</time>
      </trkpt>
      <trkpt lat="42.738974" lon="-83.075207">
        <ele>249.630325</ele>
        <time>2024-09-22T09:32:26.000Z</time>
      </trkpt>
      <trkpt lat="42.738803" lon="-83.074662">
        <ele>249.004687</ele>
        <time>2024-09-22T09:32:31.000Z</time>
      </trkpt>
      <trkpt lat="42.738428" lon="-83.073988">
        <ele>248.224513</ele>
        <time>2024-09-22T09:32:38.000Z</time>
      </trkpt>
      <trkpt lat="42.737218" lon="-83.072092">
        <ele>247.660655</ele>
        <time>2024-09-22T09:32:59.000Z</time>
      </trkpt>
      <trkpt lat="42.737073" lon="-83.071898">
        <ele>247.804477</ele>
        <time>2024-09-22T09:33:01.000Z</time>
      </trkpt>
      <trkpt lat="42.736514" lon="-83.07106">
        <ele>248.54526</ele>
        <time>2024-09-22T09:33:10.000Z</time>
      </trkpt>
      <trkpt lat="42.73637" lon="-83.070776">
        <ele>249.071031</ele>
        <time>2024-09-22T09:33:13.000Z</time>
      </trkpt>
      <trkpt lat="42.736203" lon="-83.070365">
        <ele>249.777149</ele>
        <time>2024-09-22T09:33:17.000Z</time>
      </trkpt>
      <trkpt lat="42.736078" lon="-83.06999">
        <ele>250.37592</ele>
        <time>2024-09-22T09:33:20.000Z</time>
      </trkpt>
      <trkpt lat="42.73601" lon="-83.069653">
        <ele>250.887989</ele>
        <time>2024-09-22T09:33:23.000Z</time>
      </trkpt>
      <trkpt lat="42.735986" lon="-83.069344">
        <ele>251.356775</ele>
        <time>2024-09-22T09:33:26.000Z</time>
      </trkpt>
      <trkpt lat="42.735985" lon="-83.068725">
        <ele>252.130386</ele>
        <time>2024-09-22T09:33:31.000Z</time>
      </trkpt>
      <trkpt lat="42.736216" lon="-83.066066">
        <ele>254.590975</ele>
        <time>2024-09-22T09:33:53.000Z</time>
      </trkpt>
      <trkpt lat="42.736259" lon="-83.065485">
        <ele>255.085303</ele>
        <time>2024-09-22T09:33:58.000Z</time>
      </trkpt>
      <trkpt lat="42.736298" lon="-83.064944">
        <ele>255.52872</ele>
        <time>2024-09-22T09:34:02.000Z</time>
      </trkpt>
      <trkpt lat="42.73631" lon="-83.064507">
        <ele>255.894684</ele>
        <time>2024-09-22T09:34:06.000Z</time>
      </trkpt>
      <trkpt lat="42.736272" lon="-83.06427">
        <ele>256.106174</ele>
        <time>2024-09-22T09:34:08.000Z</time>
      </trkpt>
      <trkpt lat="42.736185" lon="-83.063803">
        <ele>256.485783</ele>
        <time>2024-09-22T09:34:12.000Z</time>
      </trkpt>
      <trkpt lat="42.73604" lon="-83.063402">
        <ele>256.84205</ele>
        <time>2024-09-22T09:34:16.000Z</time>
      </trkpt>
      <trkpt lat="42.735843" lon="-83.063017">
        <ele>257.206086</ele>
        <time>2024-09-22T09:34:20.000Z</time>
      </trkpt>
      <trkpt lat="42.735713" lon="-83.062857">
        <ele>257.396048</ele>
        <time>2024-09-22T09:34:22.000Z</time>
      </trkpt>
      <trkpt lat="42.735433" lon="-83.062589">
        <ele>257.751384</ele>
        <time>2024-09-22T09:34:26.000Z</time>
      </trkpt>
      <trkpt lat="42.735164" lon="-83.062411">
        <ele>258.069885</ele>
        <time>2024-09-22T09:34:29.000Z</time>
      </trkpt>
      <trkpt lat="42.734785" lon="-83.062265">
        <ele>258.50342</ele>
        <time>2024-09-22T09:34:33.000Z</time>
      </trkpt>
      <trkpt lat="42.73452" lon="-83.062239">
        <ele>258.79263</ele>
        <time>2024-09-22T09:34:36.000Z</time>
      </trkpt>
      <trkpt lat="42.734247" lon="-83.062269">
        <ele>259.105317</ele>
        <time>2024-09-22T09:34:39.000Z</time>
      </trkpt>
      <trkpt lat="42.733451" lon="-83.062442">
        <ele>259.982577</ele>
        <time>2024-09-22T09:34:48.000Z</time>
      </trkpt>
      <trkpt lat="42.733287" lon="-83.062483">
        <ele>260.148261</ele>
        <time>2024-09-22T09:34:50.000Z</time>
      </trkpt>
      <trkpt lat="42.733205" lon="-83.062504">
        <ele>260.21889</ele>
        <time>2024-09-22T09:34:51.000Z</time>
      </trkpt>
      <trkpt lat="42.733186" lon="-83.062496">
        <ele>260.244996</ele>
        <time>2024-09-22T09:34:51.000Z</time>
      </trkpt>
      <trkpt lat="42.733018" lon="-83.062531">
        <ele>260.377026</ele>
        <time>2024-09-22T09:34:53.000Z</time>
      </trkpt>
      <trkpt lat="42.732755" lon="-83.062544">
        <ele>260.591313</ele>
        <time>2024-09-22T09:34:56.000Z</time>
      </trkpt>
      <trkpt lat="42.732487" lon="-83.062499">
        <ele>260.827566</ele>
        <time>2024-09-22T09:34:59.000Z</time>
      </trkpt>
      <trkpt lat="42.731647" lon="-83.062299">
        <ele>261.523766</ele>
        <time>2024-09-22T09:35:08.000Z</time>
      </trkpt>
      <trkpt lat="42.73135" lon="-83.062213">
        <ele>261.607985</ele>
        <time>2024-09-22T09:35:11.000Z</time>
      </trkpt>
      <trkpt lat="42.731139" lon="-83.06217">
        <ele>261.584711</ele>
        <time>2024-09-22T09:35:13.000Z</time>
      </trkpt>
      <trkpt lat="42.730814" lon="-83.062119">
        <ele>261.549473</ele>
        <time>2024-09-22T09:35:17.000Z</time>
      </trkpt>
      <trkpt lat="42.730545" lon="-83.062157">
        <ele>261.521258</ele>
        <time>2024-09-22T09:35:20.000Z</time>
      </trkpt>
      <trkpt lat="42.730287" lon="-83.062218">
        <ele>261.493477</ele>
        <time>2024-09-22T09:35:23.000Z</time>
      </trkpt>
      <trkpt lat="42.730003" lon="-83.06234">
        <ele>261.460647</ele>
        <time>2024-09-22T09:35:26.000Z</time>
      </trkpt>
      <trkpt lat="42.729729" lon="-83.062484">
        <ele>261.465418</ele>
        <time>2024-09-22T09:35:29.000Z</time>
      </trkpt>
      <trkpt lat="42.729451" lon="-83.062703">
        <ele>261.658532</ele>
        <time>2024-09-22T09:35:33.000Z</time>
      </trkpt>
      <trkpt lat="42.729206" lon="-83.062958">
        <ele>261.846394</ele>
        <time>2024-09-22T09:35:36.000Z</time>
      </trkpt>
      <trkpt lat="42.728962" lon="-83.063288">
        <ele>262.054089</ele>
        <time>2024-09-22T09:35:40.000Z</time>
      </trkpt>
      <trkpt lat="42.728777" lon="-83.063585">
        <ele>262.220611</ele>
        <time>2024-09-22T09:35:43.000Z</time>
      </trkpt>
      <trkpt lat="42.728631" lon="-83.063905">
        <ele>262.391673</ele>
        <time>2024-09-22T09:35:46.000Z</time>
      </trkpt>
      <trkpt lat="42.728552" lon="-83.064145">
        <ele>262.506325</ele>
        <time>2024-09-22T09:35:48.000Z</time>
      </trkpt>
      <trkpt lat="42.728428" lon="-83.064637">
        <ele>262.433987</ele>
        <time>2024-09-22T09:35:52.000Z</time>
      </trkpt>
      <trkpt lat="42.728362" lon="-83.064988">
        <ele>262.374916</ele>
        <time>2024-09-22T09:35:55.000Z</time>
      </trkpt>
      <trkpt lat="42.728344" lon="-83.065571">
        <ele>262.276739</ele>
        <time>2024-09-22T09:36:00.000Z</time>
      </trkpt>
      <trkpt lat="42.728374" lon="-83.066029">
        <ele>262.200046</ele>
        <time>2024-09-22T09:36:04.000Z</time>
      </trkpt>
      <trkpt lat="42.728459" lon="-83.066546">
        <ele>262.109604</ele>
        <time>2024-09-22T09:36:08.000Z</time>
      </trkpt>
      <trkpt lat="42.728724" lon="-83.067892">
        <ele>259.564703</ele>
        <time>2024-09-22T09:36:19.000Z</time>
      </trkpt>
      <trkpt lat="42.728814" lon="-83.06838">
        <ele>258.632418</ele>
        <time>2024-09-22T09:36:23.000Z</time>
      </trkpt>
      <trkpt lat="42.728828" lon="-83.068709">
        <ele>258.01169</ele>
        <time>2024-09-22T09:36:26.000Z</time>
      </trkpt>
      <trkpt lat="42.728844" lon="-83.069335">
        <ele>257.136508</ele>
        <time>2024-09-22T09:36:31.000Z</time>
      </trkpt>
      <trkpt lat="42.728808" lon="-83.069628">
        <ele>256.805818</ele>
        <time>2024-09-22T09:36:33.000Z</time>
      </trkpt>
      <trkpt lat="42.728693" lon="-83.070277">
        <ele>256.093109</ele>
        <time>2024-09-22T09:36:38.000Z</time>
      </trkpt>
      <trkpt lat="42.728541" lon="-83.070752">
        <ele>255.529044</ele>
        <time>2024-09-22T09:36:42.000Z</time>
      </trkpt>
      <trkpt lat="42.728348" lon="-83.071134">
        <ele>255.036102</ele>
        <time>2024-09-22T09:36:46.000Z</time>
      </trkpt>
      <trkpt lat="42.728151" lon="-83.071457">
        <ele>254.867737</ele>
        <time>2024-09-22T09:36:49.000Z</time>
      </trkpt>
      <trkpt lat="42.727907" lon="-83.071797">
        <ele>254.8353</ele>
        <time>2024-09-22T09:36:53.000Z</time>
      </trkpt>
      <trkpt lat="42.727621" lon="-83.072104">
        <ele>254.80013</ele>
        <time>2024-09-22T09:36:57.000Z</time>
      </trkpt>
      <trkpt lat="42.727329" lon="-83.07233">
        <ele>254.770248</ele>
        <time>2024-09-22T09:37:01.000Z</time>
      </trkpt>
      <trkpt lat="42.726476" lon="-83.072806">
        <ele>254.645672</ele>
        <time>2024-09-22T09:37:11.000Z</time>
      </trkpt>
      <trkpt lat="42.726017" lon="-83.073024">
        <ele>254.553649</ele>
        <time>2024-09-22T09:37:16.000Z</time>
      </trkpt>
      <trkpt lat="42.725512" lon="-83.073314">
        <ele>254.448892</ele>
        <time>2024-09-22T09:37:22.000Z</time>
      </trkpt>
      <trkpt lat="42.725368" lon="-83.073396">
        <ele>254.420495</ele>
        <time>2024-09-22T09:37:24.000Z</time>
      </trkpt>
      <trkpt lat="42.725169" lon="-83.073531">
        <ele>254.37782</ele>
        <time>2024-09-22T09:37:26.000Z</time>
      </trkpt>
      <trkpt lat="42.723923" lon="-83.07417">
        <ele>254.161618</ele>
        <time>2024-09-22T09:37:41.000Z</time>
      </trkpt>
      <trkpt lat="42.723405" lon="-83.074452">
        <ele>254.084249</ele>
        <time>2024-09-22T09:37:47.000Z</time>
      </trkpt>
      <trkpt lat="42.722488" lon="-83.074934">
        <ele>254.042019</ele>
        <time>2024-09-22T09:37:58.000Z</time>
      </trkpt>
      <trkpt lat="42.722124" lon="-83.075195">
        <ele>254.023834</ele>
        <time>2024-09-22T09:38:03.000Z</time>
      </trkpt>
      <trkpt lat="42.721784" lon="-83.075552">
        <ele>253.932745</ele>
        <time>2024-09-22T09:38:08.000Z</time>
      </trkpt>
      <trkpt lat="42.721571" lon="-83.075852">
        <ele>253.730102</ele>
        <time>2024-09-22T09:38:11.000Z</time>
      </trkpt>
      <trkpt lat="42.721357" lon="-83.07623">
        <ele>253.491608</ele>
        <time>2024-09-22T09:38:15.000Z</time>
      </trkpt>
      <trkpt lat="42.721114" lon="-83.076847">
        <ele>253.153639</ele>
        <time>2024-09-22T09:38:21.000Z</time>
      </trkpt>
      <trkpt lat="42.720742" lon="-83.078224">
        <ele>251.940226</ele>
        <time>2024-09-22T09:38:33.000Z</time>
      </trkpt>
      <trkpt lat="42.720712" lon="-83.078384">
        <ele>251.752151</ele>
        <time>2024-09-22T09:38:34.000Z</time>
      </trkpt>
      <trkpt lat="42.720572" lon="-83.078889">
        <ele>251.148607</ele>
        <time>2024-09-22T09:38:38.000Z</time>
      </trkpt>
      <trkpt lat="42.720081" lon="-83.080306">
        <ele>249.099946</ele>
        <time>2024-09-22T09:38:51.000Z</time>
      </trkpt>
      <trkpt lat="42.719872" lon="-83.080833">
        <ele>248.13573</ele>
        <time>2024-09-22T09:38:56.000Z</time>
      </trkpt>
      <trkpt lat="42.719668" lon="-83.081243">
        <ele>247.327141</ele>
        <time>2024-09-22T09:39:00.000Z</time>
      </trkpt>
      <trkpt lat="42.719447" lon="-83.081665">
        <ele>246.501225</ele>
        <time>2024-09-22T09:39:04.000Z</time>
      </trkpt>
      <trkpt lat="42.71895" lon="-83.082424">
        <ele>245.187052</ele>
        <time>2024-09-22T09:39:12.000Z</time>
      </trkpt>
      <trkpt lat="42.71848" lon="-83.08301">
        <ele>244.145411</ele>
        <time>2024-09-22T09:39:19.000Z</time>
      </trkpt>
      <trkpt lat="42.717632" lon="-83.08395">
        <ele>242.994374</ele>
        <time>2024-09-22T09:39:31.000Z</time>
      </trkpt>
      <trkpt lat="42.717558" lon="-83.084011">
        <ele>242.96675</ele>
        <time>2024-09-22T09:39:32.000Z</time>
      </trkpt>
      <trkpt lat="42.717092" lon="-83.084512">
        <ele>242.764291</ele>
        <time>2024-09-22T09:39:39.000Z</time>
      </trkpt>
      <trkpt lat="42.716597" lon="-83.085064">
        <ele>242.559913</ele>
        <time>2024-09-22T09:39:46.000Z</time>
      </trkpt>
      <trkpt lat="42.716353" lon="-83.085482">
        <ele>242.61528</ele>
        <time>2024-09-22T09:39:50.000Z</time>
      </trkpt>
      <trkpt lat="42.716047" lon="-83.086182">
        <ele>242.701814</ele>
        <time>2024-09-22T09:39:57.000Z</time>
      </trkpt>
      <trkpt lat="42.715889" lon="-83.086837">
        <ele>242.775167</ele>
        <time>2024-09-22T09:40:03.000Z</time>
      </trkpt>
      <trkpt lat="42.715816" lon="-83.087433">
        <ele>242.774625</ele>
        <time>2024-09-22T09:40:08.000Z</time>
      </trkpt>
      <trkpt lat="42.715827" lon="-83.087918">
        <ele>242.695607</ele>
        <time>2024-09-22T09:40:12.000Z</time>
      </trkpt>
      <trkpt lat="42.715888" lon="-83.08851">
        <ele>242.596479</ele>
        <time>2024-09-22T09:40:17.000Z</time>
      </trkpt>
      <trkpt lat="42.715989" lon="-83.088965">
        <ele>242.517864</ele>
        <time>2024-09-22T09:40:21.000Z</time>
      </trkpt>
      <trkpt lat="42.716066" lon="-83.089197">
        <ele>242.477047</ele>
        <time>2024-09-22T09:40:23.000Z</time>
      </trkpt>
      <trkpt lat="42.716571" lon="-83.090407">
        <ele>242.406734</ele>
        <time>2024-09-22T09:40:34.000Z</time>
      </trkpt>
      <trkpt lat="42.716682" lon="-83.090649">
        <ele>242.405853</ele>
        <time>2024-09-22T09:40:36.000Z</time>
      </trkpt>
      <trkpt lat="42.717455" lon="-83.092386">
        <ele>242.816268</ele>
        <time>2024-09-22T09:40:53.000Z</time>
      </trkpt>
      <trkpt lat="42.717945" lon="-83.09337">
        <ele>243.396621</ele>
        <time>2024-09-22T09:41:03.000Z</time>
      </trkpt>
      <trkpt lat="42.718394" lon="-83.094147">
        <ele>243.80972</ele>
        <time>2024-09-22T09:41:11.000Z</time>
      </trkpt>
      <trkpt lat="42.718407" lon="-83.09418">
        <ele>243.821427</ele>
        <time>2024-09-22T09:41:11.000Z</time>
      </trkpt>
      <trkpt lat="42.718415" lon="-83.094188">
        <ele>243.825345</ele>
        <time>2024-09-22T09:41:11.000Z</time>
      </trkpt>
      <trkpt lat="42.718414" lon="-83.094189">
        <ele>243.831947</ele>
        <time>2024-09-22T09:41:11.000Z</time>
      </trkpt>
      <trkpt lat="42.718513" lon="-83.094378">
        <ele>243.916384</ele>
        <time>2024-09-22T09:41:13.000Z</time>
      </trkpt>
      <trkpt lat="42.718834" lon="-83.094817">
        <ele>244.146005</ele>
        <time>2024-09-22T09:41:18.000Z</time>
      </trkpt>
      <trkpt lat="42.719497" lon="-83.095704">
        <ele>244.537624</ele>
        <time>2024-09-22T09:41:28.000Z</time>
      </trkpt>
      <trkpt lat="42.719999" lon="-83.096251">
        <ele>244.629359</ele>
        <time>2024-09-22T09:41:35.000Z</time>
      </trkpt>
      <trkpt lat="42.72064" lon="-83.096882">
        <ele>244.741107</ele>
        <time>2024-09-22T09:41:44.000Z</time>
      </trkpt>
      <trkpt lat="42.722657" lon="-83.098768">
        <ele>245.557674</ele>
        <time>2024-09-22T09:42:11.000Z</time>
      </trkpt>
      <trkpt lat="42.723208" lon="-83.099318">
        <ele>246.14796</ele>
        <time>2024-09-22T09:42:19.000Z</time>
      </trkpt>
      <trkpt lat="42.72383" lon="-83.100183">
        <ele>247.169537</ele>
        <time>2024-09-22T09:42:29.000Z</time>
      </trkpt>
      <trkpt lat="42.724112" lon="-83.100842">
        <ele>248.186829</ele>
        <time>2024-09-22T09:42:35.000Z</time>
      </trkpt>
      <trkpt lat="42.724795" lon="-83.102679">
        <ele>251.408872</ele>
        <time>2024-09-22T09:42:52.000Z</time>
      </trkpt>
      <trkpt lat="42.725124" lon="-83.103331">
        <ele>252.89522</ele>
        <time>2024-09-22T09:42:58.000Z</time>
      </trkpt>
      <trkpt lat="42.725325" lon="-83.103619">
        <ele>253.639426</ele>
        <time>2024-09-22T09:43:01.000Z</time>
      </trkpt>
      <trkpt lat="42.725562" lon="-83.10386">
        <ele>254.413708</ele>
        <time>2024-09-22T09:43:04.000Z</time>
      </trkpt>
      <trkpt lat="42.725958" lon="-83.104224">
        <ele>255.198321</ele>
        <time>2024-09-22T09:43:09.000Z</time>
      </trkpt>
      <trkpt lat="42.726307" lon="-83.104443">
        <ele>255.722701</ele>
        <time>2024-09-22T09:43:13.000Z</time>
      </trkpt>
      <trkpt lat="42.726991" lon="-83.104621">
        <ele>256.711566</ele>
        <time>2024-09-22T09:43:21.000Z</time>
      </trkpt>
      <trkpt lat="42.72735" lon="-83.104658">
        <ele>257.096873</ele>
        <time>2024-09-22T09:43:25.000Z</time>
      </trkpt>
      <trkpt lat="42.727683" lon="-83.104618">
        <ele>256.554416</ele>
        <time>2024-09-22T09:43:29.000Z</time>
      </trkpt>
      <trkpt lat="42.728086" lon="-83.104474">
        <ele>255.92193</ele>
        <time>2024-09-22T09:43:34.000Z</time>
      </trkpt>
      <trkpt lat="42.728428" lon="-83.104274">
        <ele>255.330994</ele>
        <time>2024-09-22T09:43:38.000Z</time>
      </trkpt>
      <trkpt lat="42.728908" lon="-83.103895">
        <ele>254.463446</ele>
        <time>2024-09-22T09:43:44.000Z</time>
      </trkpt>
      <trkpt lat="42.729312" lon="-83.103468">
        <ele>253.345742</ele>
        <time>2024-09-22T09:43:50.000Z</time>
      </trkpt>
      <trkpt lat="42.730147" lon="-83.102657">
        <ele>250.931098</ele>
        <time>2024-09-22T09:44:01.000Z</time>
      </trkpt>
      <trkpt lat="42.731489" lon="-83.10177">
        <ele>248.623447</ele>
        <time>2024-09-22T09:44:18.000Z</time>
      </trkpt>
      <trkpt lat="42.731481" lon="-83.101774">
        <ele>248.612986</ele>
        <time>2024-09-22T09:44:18.000Z</time>
      </trkpt>
      <trkpt lat="42.732041" lon="-83.101363">
        <ele>247.773016</ele>
        <time>2024-09-22T09:44:25.000Z</time>
      </trkpt>
      <trkpt lat="42.732253" lon="-83.101159">
        <ele>247.661194</ele>
        <time>2024-09-22T09:44:28.000Z</time>
      </trkpt>
      <trkpt lat="42.73264" lon="-83.10065">
        <ele>247.453559</ele>
        <time>2024-09-22T09:44:34.000Z</time>
      </trkpt>
      <trkpt lat="42.732843" lon="-83.100299">
        <ele>247.323794</ele>
        <time>2024-09-22T09:44:38.000Z</time>
      </trkpt>
      <trkpt lat="42.733021" lon="-83.09991">
        <ele>247.196404</ele>
        <time>2024-09-22T09:44:42.000Z</time>
      </trkpt>
      <trkpt lat="42.733298" lon="-83.099086">
        <ele>246.99018</ele>
        <time>2024-09-22T09:44:49.000Z</time>
      </trkpt>
      <trkpt lat="42.733366" lon="-83.098654">
        <ele>246.916445</ele>
        <time>2024-09-22T09:44:53.000Z</time>
      </trkpt>
      <trkpt lat="42.733414" lon="-83.098206">
        <ele>246.839668</ele>
        <time>2024-09-22T09:44:57.000Z</time>
      </trkpt>
      <trkpt lat="42.733433" lon="-83.097947">
        <ele>246.797897</ele>
        <time>2024-09-22T09:44:59.000Z</time>
      </trkpt>
      <trkpt lat="42.733424" lon="-83.097349">
        <ele>246.699603</ele>
        <time>2024-09-22T09:45:04.000Z</time>
      </trkpt>
      <trkpt lat="42.733367" lon="-83.096883">
        <ele>246.692502</ele>
        <time>2024-09-22T09:45:08.000Z</time>
      </trkpt>
      <trkpt lat="42.733157" lon="-83.096021">
        <ele>246.857522</ele>
        <time>2024-09-22T09:45:15.000Z</time>
      </trkpt>
      <trkpt lat="42.732849" lon="-83.094562">
        <ele>247.107734</ele>
        <time>2024-09-22T09:45:27.000Z</time>
      </trkpt>
      <trkpt lat="42.732757" lon="-83.093533">
        <ele>247.130755</ele>
        <time>2024-09-22T09:45:35.000Z</time>
      </trkpt>
      <trkpt lat="42.732749" lon="-83.093203">
        <ele>247.138009</ele>
        <time>2024-09-22T09:45:38.000Z</time>
      </trkpt>
      <trkpt lat="42.732776" lon="-83.092595">
        <ele>247.151445</ele>
        <time>2024-09-22T09:45:43.000Z</time>
      </trkpt>
      <trkpt lat="42.732901" lon="-83.091737">
        <ele>247.556995</ele>
        <time>2024-09-22T09:45:50.000Z</time>
      </trkpt>
      <trkpt lat="42.732961" lon="-83.091459">
        <ele>247.759979</ele>
        <time>2024-09-22T09:45:52.000Z</time>
      </trkpt>
      <trkpt lat="42.733319" lon="-83.089418">
        <ele>249.230109</ele>
        <time>2024-09-22T09:46:09.000Z</time>
      </trkpt>
      <trkpt lat="42.73346" lon="-83.087945">
        <ele>250.224864</ele>
        <time>2024-09-22T09:46:21.000Z</time>
      </trkpt>
      <trkpt lat="42.733454" lon="-83.087931">
        <ele>250.241105</ele>
        <time>2024-09-22T09:46:21.000Z</time>
      </trkpt>
      <trkpt lat="42.733463" lon="-83.08792">
        <ele>250.250553</ele>
        <time>2024-09-22T09:46:21.000Z</time>
      </trkpt>
      <trkpt lat="42.733459" lon="-83.087811">
        <ele>250.314957</ele>
        <time>2024-09-22T09:46:22.000Z</time>
      </trkpt>
      <trkpt lat="42.733479" lon="-83.08772">
        <ele>250.377134</ele>
        <time>2024-09-22T09:46:23.000Z</time>
      </trkpt>
      <trkpt lat="42.733468" lon="-83.087685">
        <ele>250.401501</ele>
        <time>2024-09-22T09:46:23.000Z</time>
      </trkpt>
      <trkpt lat="42.733479" lon="-83.087654">
        <ele>250.430544</ele>
        <time>2024-09-22T09:46:23.000Z</time>
      </trkpt>
      <trkpt lat="42.733789" lon="-83.0843">
        <ele>251.576147</ele>
        <time>2024-09-22T09:46:51.000Z</time>
      </trkpt>
      <trkpt lat="42.733892" lon="-83.083664">
        <ele>251.650517</ele>
        <time>2024-09-22T09:46:56.000Z</time>
      </trkpt>
      <trkpt lat="42.734047" lon="-83.083037">
        <ele>251.729086</ele>
        <time>2024-09-22T09:47:01.000Z</time>
      </trkpt>
      <trkpt lat="42.734264" lon="-83.082457">
        <ele>251.758288</ele>
        <time>2024-09-22T09:47:06.000Z</time>
      </trkpt>
      <trkpt lat="42.734511" lon="-83.081927">
        <ele>251.729498</ele>
        <time>2024-09-22T09:47:11.000Z</time>
      </trkpt>
      <trkpt lat="42.734874" lon="-83.081335">
        <ele>251.693604</ele>
        <time>2024-09-22T09:47:17.000Z</time>
      </trkpt>
      <trkpt lat="42.735347" lon="-83.080782">
        <ele>251.672282</ele>
        <time>2024-09-22T09:47:24.000Z</time>
      </trkpt>
      <trkpt lat="42.738174" lon="-83.078334">
        <ele>252.416002</ele>
        <time>2024-09-22T09:48:01.000Z</time>
      </trkpt>
      <trkpt lat="42.738279" lon="-83.078235">
        <ele>252.44507</ele>
        <time>2024-09-22T09:48:02.000Z</time>
      </trkpt>
      <trkpt lat="42.738559" lon="-83.077908">
        <ele>252.179737</ele>
        <time>2024-09-22T09:48:06.000Z</time>
      </trkpt>
      <trkpt lat="42.738753" lon="-83.077526">
        <ele>251.890746</ele>
        <time>2024-09-22T09:48:10.000Z</time>
      </trkpt>
      <trkpt lat="42.738903" lon="-83.077133">
        <ele>251.608733</ele>
        <time>2024-09-22T09:48:14.000Z</time>
      </trkpt>
      <trkpt lat="42.738986" lon="-83.076753">
        <ele>251.348557</ele>
        <time>2024-09-22T09:48:17.000Z</time>
      </trkpt>
      <trkpt lat="42.739018" lon="-83.076591">
        <ele>251.246509</ele>
        <time>2024-09-22T09:48:18.000Z</time>
      </trkpt>
      <trkpt lat="42.739071" lon="-83.076206">
        <ele>250.991932</ele>
        <time>2024-09-22T09:48:21.000Z</time>
      </trkpt>
      <trkpt lat="42.739062" lon="-83.075707">
        <ele>250.458787</ele>
        <time>2024-09-22T09:48:25.000Z</time>
      </trkpt>
      <trkpt lat="42.738973" lon="-83.075225">
        <ele>249.788833</ele>
        <time>2024-09-22T09:48:29.000Z</time>
      </trkpt>
      <trkpt lat="42.73881" lon="-83.074658">
        <ele>248.992584</ele>
        <time>2024-09-22T09:48:34.000Z</time>
      </trkpt>
      <trkpt lat="42.738417" lon="-83.073987">
        <ele>247.881083</ele>
        <time>2024-09-22T09:48:41.000Z</time>
      </trkpt>
      <trkpt lat="42.737219" lon="-83.072099">
        <ele>247.212469</ele>
        <time>2024-09-22T09:49:01.000Z</time>
      </trkpt>
      <trkpt lat="42.737081" lon="-83.071884">
        <ele>247.428916</ele>
        <time>2024-09-22T09:49:03.000Z</time>
      </trkpt>
      <trkpt lat="42.736529" lon="-83.07107">
        <ele>248.864</ele>
        <time>2024-09-22T09:49:12.000Z</time>
      </trkpt>
      <trkpt lat="42.736358" lon="-83.070781">
        <ele>249.318053</ele>
        <time>2024-09-22T09:49:15.000Z</time>
      </trkpt>
      <trkpt lat="42.736205" lon="-83.070352">
        <ele>249.927839</ele>
        <time>2024-09-22T09:49:19.000Z</time>
      </trkpt>
      <trkpt lat="42.736087" lon="-83.06998">
        <ele>250.436209</ele>
        <time>2024-09-22T09:49:22.000Z</time>
      </trkpt>
      <trkpt lat="42.736024" lon="-83.069649">
        <ele>250.845514</ele>
        <time>2024-09-22T09:49:25.000Z</time>
      </trkpt>
      <trkpt lat="42.735991" lon="-83.069333">
        <ele>251.220223</ele>
        <time>2024-09-22T09:49:28.000Z</time>
      </trkpt>
      <trkpt lat="42.735984" lon="-83.068732">
        <ele>251.940733</ele>
        <time>2024-09-22T09:49:33.000Z</time>
      </trkpt>
      <trkpt lat="42.73621" lon="-83.066066">
        <ele>254.584317</ele>
        <time>2024-09-22T09:49:55.000Z</time>
      </trkpt>
      <trkpt lat="42.736273" lon="-83.065477">
        <ele>255.082966</ele>
        <time>2024-09-22T09:50:00.000Z</time>
      </trkpt>
      <trkpt lat="42.736309" lon="-83.064949">
        <ele>255.524566</ele>
        <time>2024-09-22T09:50:04.000Z</time>
      </trkpt>
      <trkpt lat="42.736306" lon="-83.064524">
        <ele>255.884493</ele>
        <time>2024-09-22T09:50:07.000Z</time>
      </trkpt>
      <trkpt lat="42.736273" lon="-83.064262">
        <ele>256.09248</ele>
        <time>2024-09-22T09:50:09.000Z</time>
      </trkpt>
      <trkpt lat="42.736177" lon="-83.063816">
        <ele>256.482494</ele>
        <time>2024-09-22T09:50:13.000Z</time>
      </trkpt>
      <trkpt lat="42.736042" lon="-83.063403">
        <ele>256.858183</ele>
        <time>2024-09-22T09:50:17.000Z</time>
      </trkpt>
      <trkpt lat="42.735842" lon="-83.063023">
        <ele>257.242086</ele>
        <time>2024-09-22T09:50:21.000Z</time>
      </trkpt>
      <trkpt lat="42.7357" lon="-83.062865">
        <ele>257.431352</ele>
        <time>2024-09-22T09:50:23.000Z</time>
      </trkpt>
      <trkpt lat="42.735437" lon="-83.062599">
        <ele>257.770821</ele>
        <time>2024-09-22T09:50:27.000Z</time>
      </trkpt>
      <trkpt lat="42.735169" lon="-83.06241">
        <ele>258.075094</ele>
        <time>2024-09-22T09:50:30.000Z</time>
      </trkpt>
      <trkpt lat="42.73478" lon="-83.062255">
        <ele>258.481458</ele>
        <time>2024-09-22T09:50:35.000Z</time>
      </trkpt>
      <trkpt lat="42.734518" lon="-83.062226">
        <ele>258.751018</ele>
        <time>2024-09-22T09:50:38.000Z</time>
      </trkpt>
      <trkpt lat="42.734239" lon="-83.062263">
        <ele>259.042459</ele>
        <time>2024-09-22T09:50:41.000Z</time>
      </trkpt>
      <trkpt lat="42.733453" lon="-83.062446">
        <ele>259.93118</ele>
        <time>2024-09-22T09:50:50.000Z</time>
      </trkpt>
      <trkpt lat="42.733288" lon="-83.062486">
        <ele>260.10609</ele>
        <time>2024-09-22T09:50:52.000Z</time>
      </trkpt>
      <trkpt lat="42.733203" lon="-83.062502">
        <ele>260.201412</ele>
        <time>2024-09-22T09:50:53.000Z</time>
      </trkpt>
      <trkpt lat="42.73317" lon="-83.062504">
        <ele>260.236634</ele>
        <time>2024-09-22T09:50:53.000Z</time>
      </trkpt>
      <trkpt lat="42.733022" lon="-83.062535">
        <ele>260.414851</ele>
        <time>2024-09-22T09:50:55.000Z</time>
      </trkpt>
      <trkpt lat="42.732766" lon="-83.062544">
        <ele>260.704106</ele>
        <time>2024-09-22T09:50:58.000Z</time>
      </trkpt>
      <trkpt lat="42.732476" lon="-83.062494">
        <ele>261.022983</ele>
        <time>2024-09-22T09:51:01.000Z</time>
      </trkpt>
      <trkpt lat="42.731657" lon="-83.06229">
        <ele>261.341233</ele>
        <time>2024-09-22T09:51:10.000Z</time>
      </trkpt>
      <trkpt lat="42.731358" lon="-83.062221">
        <ele>261.413888</ele>
        <time>2024-09-22T09:51:13.000Z</time>
      </trkpt>
      <trkpt lat="42.731147" lon="-83.06217">
        <ele>261.466084</ele>
        <time>2024-09-22T09:51:15.000Z</time>
      </trkpt>
      <trkpt lat="42.730813" lon="-83.062134">
        <ele>261.545171</ele>
        <time>2024-09-22T09:51:19.000Z</time>
      </trkpt>
      <trkpt lat="42.730555" lon="-83.062144">
        <ele>261.605156</ele>
        <time>2024-09-22T09:51:22.000Z</time>
      </trkpt>
      <trkpt lat="42.730288" lon="-83.062219">
        <ele>261.629675</ele>
        <time>2024-09-22T09:51:25.000Z</time>
      </trkpt>
      <trkpt lat="42.729996" lon="-83.062343">
        <ele>261.658637</ele>
        <time>2024-09-22T09:51:28.000Z</time>
      </trkpt>
      <trkpt lat="42.729725" lon="-83.062492">
        <ele>261.685748</ele>
        <time>2024-09-22T09:51:31.000Z</time>
      </trkpt>
      <trkpt lat="42.729444" lon="-83.062706">
        <ele>261.715934</ele>
        <time>2024-09-22T09:51:35.000Z</time>
      </trkpt>
      <trkpt lat="42.729201" lon="-83.062969">
        <ele>261.74531</ele>
        <time>2024-09-22T09:51:38.000Z</time>
      </trkpt>
      <trkpt lat="42.728957" lon="-83.063283">
        <ele>261.81054</ele>
        <time>2024-09-22T09:51:42.000Z</time>
      </trkpt>
      <trkpt lat="42.728789" lon="-83.063578">
        <ele>261.991798</ele>
        <time>2024-09-22T09:51:45.000Z</time>
      </trkpt>
      <trkpt lat="42.728631" lon="-83.063923">
        <ele>262.178025</ele>
        <time>2024-09-22T09:51:48.000Z</time>
      </trkpt>
      <trkpt lat="42.728558" lon="-83.064142">
        <ele>262.30284</ele>
        <time>2024-09-22T09:51:50.000Z</time>
      </trkpt>
      <trkpt lat="42.72843" lon="-83.064641">
        <ele>262.556148</ele>
        <time>2024-09-22T09:51:54.000Z</time>
      </trkpt>
      <trkpt lat="42.728377" lon="-83.064995">
        <ele>262.72483</ele>
        <time>2024-09-22T09:51:57.000Z</time>
      </trkpt>
      <trkpt lat="42.728333" lon="-83.065572">
        <ele>262.805771</ele>
        <time>2024-09-22T09:52:02.000Z</time>
      </trkpt>
      <trkpt lat="42.728379" lon="-83.066012">
        <ele>262.218803</ele>
        <time>2024-09-22T09:52:06.000Z</time>
      </trkpt>
      <trkpt lat="42.728456" lon="-83.066535">
        <ele>261.52648</ele>
        <time>2024-09-22T09:52:10.000Z</time>
      </trkpt>
      <trkpt lat="42.728718" lon="-83.067879">
        <ele>259.71484</ele>
        <time>2024-09-22T09:52:21.000Z</time>
      </trkpt>
      <trkpt lat="42.728809" lon="-83.068379">
        <ele>258.862417</ele>
        <time>2024-09-22T09:52:25.000Z</time>
      </trkpt>
      <trkpt lat="42.728846" lon="-83.068713">
        <ele>258.294859</ele>
        <time>2024-09-22T09:52:28.000Z</time>
      </trkpt>
      <trkpt lat="42.728835" lon="-83.069339">
        <ele>257.226144</ele>
        <time>2024-09-22T09:52:33.000Z</time>
      </trkpt>
      <trkpt lat="42.72881" lon="-83.069628">
        <ele>256.708137</ele>
        <time>2024-09-22T09:52:35.000Z</time>
      </trkpt>
      <trkpt lat="42.728693" lon="-83.07027">
        <ele>255.618088</ele>
        <time>2024-09-22T09:52:40.000Z</time>
      </trkpt>
      <trkpt lat="42.72853" lon="-83.070738">
        <ele>255.42899</ele>
        <time>2024-09-22T09:52:44.000Z</time>
      </trkpt>
      <trkpt lat="42.728352" lon="-83.071125">
        <ele>255.263756</ele>
        <time>2024-09-22T09:52:48.000Z</time>
      </trkpt>
      <trkpt lat="42.728156" lon="-83.07146">
        <ele>255.106275</ele>
        <time>2024-09-22T09:52:51.000Z</time>
      </trkpt>
      <trkpt lat="42.727911" lon="-83.071805">
        <ele>254.934551</ele>
        <time>2024-09-22T09:52:55.000Z</time>
      </trkpt>
      <trkpt lat="42.727612" lon="-83.072119">
        <ele>254.748442</ele>
        <time>2024-09-22T09:52:59.000Z</time>
      </trkpt>
      <trkpt lat="42.727334" lon="-83.072316">
        <ele>254.704631</ele>
        <time>2024-09-22T09:53:02.000Z</time>
      </trkpt>
      <trkpt lat="42.726486" lon="-83.072794">
        <ele>254.611683</ele>
        <time>2024-09-22T09:53:12.000Z</time>
      </trkpt>
      <trkpt lat="42.726029" lon="-83.073023">
        <ele>254.563324</ele>
        <time>2024-09-22T09:53:17.000Z</time>
      </trkpt>
      <trkpt lat="42.72552" lon="-83.073307">
        <ele>254.461276</ele>
        <time>2024-09-22T09:53:23.000Z</time>
      </trkpt>
      <trkpt lat="42.72538" lon="-83.073387">
        <ele>254.430858</ele>
        <time>2024-09-22T09:53:25.000Z</time>
      </trkpt>
      <trkpt lat="42.725177" lon="-83.073521">
        <ele>254.385155</ele>
        <time>2024-09-22T09:53:28.000Z</time>
      </trkpt>
      <trkpt lat="42.723919" lon="-83.074165">
        <ele>254.168759</ele>
        <time>2024-09-22T09:53:43.000Z</time>
      </trkpt>
      <trkpt lat="42.723402" lon="-83.074453">
        <ele>254.142117</ele>
        <time>2024-09-22T09:53:49.000Z</time>
      </trkpt>
      <trkpt lat="42.722488" lon="-83.074942">
        <ele>254.069931</ele>
        <time>2024-09-22T09:54:00.000Z</time>
      </trkpt>
      <trkpt lat="42.722124" lon="-83.075204">
        <ele>253.948815</ele>
        <time>2024-09-22T09:54:05.000Z</time>
      </trkpt>
      <trkpt lat="42.721786" lon="-83.075546">
        <ele>253.827116</ele>
        <time>2024-09-22T09:54:10.000Z</time>
      </trkpt>
      <trkpt lat="42.721573" lon="-83.075836">
        <ele>253.738978</ele>
        <time>2024-09-22T09:54:13.000Z</time>
      </trkpt>
      <trkpt lat="42.721343" lon="-83.076236">
        <ele>253.635241</ele>
        <time>2024-09-22T09:54:17.000Z</time>
      </trkpt>
      <trkpt lat="42.721116" lon="-83.076852">
        <ele>253.207061</ele>
        <time>2024-09-22T09:54:23.000Z</time>
      </trkpt>
      <trkpt lat="42.720741" lon="-83.078234">
        <ele>251.94842</ele>
        <time>2024-09-22T09:54:35.000Z</time>
      </trkpt>
      <trkpt lat="42.720701" lon="-83.078383">
        <ele>251.805576</ele>
        <time>2024-09-22T09:54:36.000Z</time>
      </trkpt>
      <trkpt lat="42.720554" lon="-83.078889">
        <ele>251.25896</ele>
        <time>2024-09-22T09:54:40.000Z</time>
      </trkpt>
      <trkpt lat="42.720097" lon="-83.080311">
        <ele>249.040991</ele>
        <time>2024-09-22T09:54:53.000Z</time>
      </trkpt>
      <trkpt lat="42.719869" lon="-83.080828">
        <ele>248.190626</ele>
        <time>2024-09-22T09:54:58.000Z</time>
      </trkpt>
      <trkpt lat="42.719677" lon="-83.081257">
        <ele>247.425802</ele>
        <time>2024-09-22T09:55:02.000Z</time>
      </trkpt>
      <trkpt lat="42.719446" lon="-83.081656">
        <ele>246.626477</ele>
        <time>2024-09-22T09:55:06.000Z</time>
      </trkpt>
      <trkpt lat="42.71895" lon="-83.082417">
        <ele>245.053624</ele>
        <time>2024-09-22T09:55:14.000Z</time>
      </trkpt>
      <trkpt lat="42.71849" lon="-83.083002">
        <ele>243.996043</ele>
        <time>2024-09-22T09:55:21.000Z</time>
      </trkpt>
      <trkpt lat="42.717639" lon="-83.083943">
        <ele>243.037949</ele>
        <time>2024-09-22T09:55:33.000Z</time>
      </trkpt>
      <trkpt lat="42.717563" lon="-83.084009">
        <ele>242.966979</ele>
        <time>2024-09-22T09:55:34.000Z</time>
      </trkpt>
      <trkpt lat="42.717091" lon="-83.084517">
        <ele>242.640939</ele>
        <time>2024-09-22T09:55:41.000Z</time>
      </trkpt>
      <trkpt lat="42.716598" lon="-83.085068">
        <ele>242.663195</ele>
        <time>2024-09-22T09:55:48.000Z</time>
      </trkpt>
      <trkpt lat="42.716357" lon="-83.085469">
        <ele>242.676647</ele>
        <time>2024-09-22T09:55:52.000Z</time>
      </trkpt>
      <trkpt lat="42.716038" lon="-83.086175">
        <ele>242.69564</ele>
        <time>2024-09-22T09:55:59.000Z</time>
      </trkpt>
      <trkpt lat="42.715888" lon="-83.086838">
        <ele>242.691842</ele>
        <time>2024-09-22T09:56:05.000Z</time>
      </trkpt>
      <trkpt lat="42.715826" lon="-83.087442">
        <ele>242.688581</ele>
        <time>2024-09-22T09:56:10.000Z</time>
      </trkpt>
      <trkpt lat="42.715818" lon="-83.087925">
        <ele>242.685975</ele>
        <time>2024-09-22T09:56:14.000Z</time>
      </trkpt>
      <trkpt lat="42.715896" lon="-83.088521">
        <ele>242.682701</ele>
        <time>2024-09-22T09:56:19.000Z</time>
      </trkpt>
      <trkpt lat="42.715985" lon="-83.088977">
        <ele>242.600732</ele>
        <time>2024-09-22T09:56:23.000Z</time>
      </trkpt>
      <trkpt lat="42.716069" lon="-83.089198">
        <ele>242.55791</ele>
        <time>2024-09-22T09:56:25.000Z</time>
      </trkpt>
      <trkpt lat="42.716584" lon="-83.090418">
        <ele>242.315054</ele>
        <time>2024-09-22T09:56:36.000Z</time>
      </trkpt>
      <trkpt lat="42.716689" lon="-83.090655">
        <ele>242.266664</ele>
        <time>2024-09-22T09:56:38.000Z</time>
      </trkpt>
      <trkpt lat="42.717452" lon="-83.092373">
        <ele>242.822245</ele>
        <time>2024-09-22T09:56:54.000Z</time>
      </trkpt>
      <trkpt lat="42.717941" lon="-83.09337">
        <ele>243.321847</ele>
        <time>2024-09-22T09:57:04.000Z</time>
      </trkpt>
      <trkpt lat="42.718385" lon="-83.094143">
        <ele>243.820173</ele>
        <time>2024-09-22T09:57:12.000Z</time>
      </trkpt>
      <trkpt lat="42.718401" lon="-83.094168">
        <ele>243.836079</ele>
        <time>2024-09-22T09:57:12.000Z</time>
      </trkpt>
      <trkpt lat="42.718415" lon="-83.094175">
        <ele>243.841404</ele>
        <time>2024-09-22T09:57:12.000Z</time>
      </trkpt>
      <trkpt lat="42.718414" lon="-83.094186">
        <ele>243.850381</ele>
        <time>2024-09-22T09:57:12.000Z</time>
      </trkpt>
      <trkpt lat="42.71852" lon="-83.094366">
        <ele>243.965052</ele>
        <time>2024-09-22T09:57:14.000Z</time>
      </trkpt>
      <trkpt lat="42.718822" lon="-83.094817">
        <ele>244.226759</ele>
        <time>2024-09-22T09:57:19.000Z</time>
      </trkpt>
      <trkpt lat="42.719497" lon="-83.0957">
        <ele>244.474706</ele>
        <time>2024-09-22T09:57:29.000Z</time>
      </trkpt>
      <trkpt lat="42.719999" lon="-83.096268">
        <ele>244.646557</ele>
        <time>2024-09-22T09:57:36.000Z</time>
      </trkpt>
      <trkpt lat="42.720632" lon="-83.09689">
        <ele>244.770381</ele>
        <time>2024-09-22T09:57:45.000Z</time>
      </trkpt>
      <trkpt lat="42.722666" lon="-83.098768">
        <ele>245.500825</ele>
        <time>2024-09-22T09:58:12.000Z</time>
      </trkpt>
      <trkpt lat="42.723217" lon="-83.099333">
        <ele>246.025023</ele>
        <time>2024-09-22T09:58:20.000Z</time>
      </trkpt>
      <trkpt lat="42.723829" lon="-83.100199">
        <ele>247.279428</ele>
        <time>2024-09-22T09:58:30.000Z</time>
      </trkpt>
      <trkpt lat="42.724107" lon="-83.100831">
        <ele>248.072286</ele>
        <time>2024-09-22T09:58:36.000Z</time>
      </trkpt>
      <trkpt lat="42.724798" lon="-83.102682">
        <ele>251.428356</ele>
        <time>2024-09-22T09:58:53.000Z</time>
      </trkpt>
      <trkpt lat="42.725113" lon="-83.103339">
        <ele>252.747001</ele>
        <time>2024-09-22T09:58:59.000Z</time>
      </trkpt>
      <trkpt lat="42.725315" lon="-83.103604">
        <ele>253.429462</ele>
        <time>2024-09-22T09:59:02.000Z</time>
      </trkpt>
      <trkpt lat="42.725558" lon="-83.103854">
        <ele>254.139489</ele>
        <time>2024-09-22T09:59:05.000Z</time>
      </trkpt>
      <trkpt lat="42.725959" lon="-83.10422">
        <ele>255.302543</ele>
        <time>2024-09-22T09:59:10.000Z</time>
      </trkpt>
      <trkpt lat="42.726295" lon="-83.104433">
        <ele>256.197111</ele>
        <time>2024-09-22T09:59:14.000Z</time>
      </trkpt>
      <trkpt lat="42.726995" lon="-83.104633">
        <ele>256.503024</ele>
        <time>2024-09-22T09:59:22.000Z</time>
      </trkpt>
      <trkpt lat="42.727348" lon="-83.104666">
        <ele>256.398669</ele>
        <time>2024-09-22T09:59:26.000Z</time>
      </trkpt>
      <trkpt lat="42.727684" lon="-83.104621">
        <ele>256.295283</ele>
        <time>2024-09-22T09:59:30.000Z</time>
      </trkpt>
      <trkpt lat="42.728089" lon="-83.104474">
        <ele>256.174769</ele>
        <time>2024-09-22T09:59:35.000Z</time>
      </trkpt>
      <trkpt lat="42.728429" lon="-83.104275">
        <ele>255.668214</ele>
        <time>2024-09-22T09:59:39.000Z</time>
      </trkpt>
      <trkpt lat="42.72891" lon="-83.103889">
        <ele>254.374054</ele>
        <time>2024-09-22T09:59:45.000Z</time>
      </trkpt>
      <trkpt lat="42.729302" lon="-83.103477">
        <ele>253.193946</ele>
        <time>2024-09-22T09:59:51.000Z</time>
      </trkpt>
      <trkpt lat="42.730151" lon="-83.102652">
        <ele>251.02005</ele>
        <time>2024-09-22T10:00:03.000Z</time>
      </trkpt>
      <trkpt lat="42.731482" lon="-83.101772">
        <ele>248.478436</ele>
        <time>2024-09-22T10:00:19.000Z</time>
      </trkpt>
      <trkpt lat="42.731492" lon="-83.101779">
        <ele>248.472746</ele>
        <time>2024-09-22T10:00:19.000Z</time>
      </trkpt>
      <trkpt lat="42.732053" lon="-83.101357">
        <ele>248.015571</ele>
        <time>2024-09-22T10:00:26.000Z</time>
      </trkpt>
      <trkpt lat="42.732255" lon="-83.101164">
        <ele>247.835904</ele>
        <time>2024-09-22T10:00:29.000Z</time>
      </trkpt>
      <trkpt lat="42.732639" lon="-83.100664">
        <ele>247.448037</ele>
        <time>2024-09-22T10:00:35.000Z</time>
      </trkpt>
      <trkpt lat="42.732849" lon="-83.100293">
        <ele>247.257966</ele>
        <time>2024-09-22T10:00:39.000Z</time>
      </trkpt>
      <trkpt lat="42.733025" lon="-83.099917">
        <ele>247.145118</ele>
        <time>2024-09-22T10:00:43.000Z</time>
      </trkpt>
      <trkpt lat="42.733285" lon="-83.099098">
        <ele>246.919448</ele>
        <time>2024-09-22T10:00:50.000Z</time>
      </trkpt>
      <trkpt lat="42.733377" lon="-83.098653">
        <ele>246.806863</ele>
        <time>2024-09-22T10:00:54.000Z</time>
      </trkpt>
      <trkpt lat="42.733421" lon="-83.098206">
        <ele>246.691294</ele>
        <time>2024-09-22T10:00:58.000Z</time>
      </trkpt>
      <trkpt lat="42.733433" lon="-83.097942">
        <ele>246.719669</ele>
        <time>2024-09-22T10:01:00.000Z</time>
      </trkpt>
      <trkpt lat="42.733421" lon="-83.09735">
        <ele>246.786413</ele>
        <time>2024-09-22T10:01:05.000Z</time>
      </trkpt>
      <trkpt lat="42.733368" lon="-83.096865">
        <ele>246.839593</ele>
        <time>2024-09-22T10:01:09.000Z</time>
      </trkpt>
      <trkpt lat="42.733156" lon="-83.096007">
        <ele>246.940008</ele>
        <time>2024-09-22T10:01:16.000Z</time>
      </trkpt>
      <trkpt lat="42.732848" lon="-83.094554">
        <ele>247.012735</ele>
        <time>2024-09-22T10:01:28.000Z</time>
      </trkpt>
      <trkpt lat="42.732751" lon="-83.093527">
        <ele>247.05182</ele>
        <time>2024-09-22T10:01:36.000Z</time>
      </trkpt>
      <trkpt lat="42.732749" lon="-83.093199">
        <ele>247.131482</ele>
        <time>2024-09-22T10:01:39.000Z</time>
      </trkpt>
      <trkpt lat="42.732771" lon="-83.092599">
        <ele>247.339587</ele>
        <time>2024-09-22T10:01:44.000Z</time>
      </trkpt>
      <trkpt lat="42.73291" lon="-83.091748">
        <ele>247.635789</ele>
        <time>2024-09-22T10:01:51.000Z</time>
      </trkpt>
      <trkpt lat="42.732954" lon="-83.091459">
        <ele>247.734221</ele>
        <time>2024-09-22T10:01:53.000Z</time>
      </trkpt>
      <trkpt lat="42.733311" lon="-83.089421">
        <ele>249.249785</ele>
        <time>2024-09-22T10:02:10.000Z</time>
      </trkpt>
      <trkpt lat="42.733453" lon="-83.087946">
        <ele>250.232967</ele>
        <time>2024-09-22T10:02:22.000Z</time>
      </trkpt>
      <trkpt lat="42.733457" lon="-83.087929">
        <ele>250.244267</ele>
        <time>2024-09-22T10:02:22.000Z</time>
      </trkpt>
      <trkpt lat="42.733454" lon="-83.087914">
        <ele>250.250869</ele>
        <time>2024-09-22T10:02:22.000Z</time>
      </trkpt>
      <trkpt lat="42.733467" lon="-83.087826">
        <ele>250.295734</ele>
        <time>2024-09-22T10:02:23.000Z</time>
      </trkpt>
      <trkpt lat="42.733472" lon="-83.087721">
        <ele>250.339079</ele>
        <time>2024-09-22T10:02:24.000Z</time>
      </trkpt>
      <trkpt lat="42.733479" lon="-83.087689">
        <ele>250.356041</ele>
        <time>2024-09-22T10:02:24.000Z</time>
      </trkpt>
      <trkpt lat="42.733472" lon="-83.087647">
        <ele>250.376282</ele>
        <time>2024-09-22T10:02:24.000Z</time>
      </trkpt>
      <trkpt lat="42.7338" lon="-83.084286">
        <ele>251.609501</ele>
        <time>2024-09-22T10:02:52.000Z</time>
      </trkpt>
      <trkpt lat="42.7339" lon="-83.083677">
        <ele>251.759647</ele>
        <time>2024-09-22T10:02:57.000Z</time>
      </trkpt>
      <trkpt lat="42.73405" lon="-83.083032">
        <ele>251.734059</ele>
        <time>2024-09-22T10:03:03.000Z</time>
      </trkpt>
      <trkpt lat="42.734268" lon="-83.08245">
        <ele>251.708901</ele>
        <time>2024-09-22T10:03:08.000Z</time>
      </trkpt>
      <trkpt lat="42.73451" lon="-83.081936">
        <ele>251.685321</ele>
        <time>2024-09-22T10:03:13.000Z</time>
      </trkpt>
      <trkpt lat="42.734866" lon="-83.081346">
        <ele>251.695297</ele>
        <time>2024-09-22T10:03:19.000Z</time>
      </trkpt>
      <trkpt lat="42.73535" lon="-83.080769">
        <ele>251.756158</ele>
        <time>2024-09-22T10:03:26.000Z</time>
      </trkpt>
      <trkpt lat="42.73816" lon="-83.078335">
        <ele>252.214365</ele>
        <time>2024-09-22T10:04:03.000Z</time>
      </trkpt>
      <trkpt lat="42.738271" lon="-83.078247">
        <ele>252.189283</ele>
        <time>2024-09-22T10:04:04.000Z</time>
      </trkpt>
      <trkpt lat="42.738567" lon="-83.077905">
        <ele>252.118771</ele>
        <time>2024-09-22T10:04:08.000Z</time>
      </trkpt>
      <trkpt lat="42.738749" lon="-83.077539">
        <ele>252.056581</ele>
        <time>2024-09-22T10:04:12.000Z</time>
      </trkpt>
      <trkpt lat="42.738903" lon="-83.077146">
        <ele>251.987127</ele>
        <time>2024-09-22T10:04:16.000Z</time>
      </trkpt>
      <trkpt lat="42.739002" lon="-83.076754">
        <ele>251.491116</ele>
        <time>2024-09-22T10:04:19.000Z</time>
      </trkpt>
      <trkpt lat="42.739016" lon="-83.076592">
        <ele>251.296572</ele>
        <time>2024-09-22T10:04:20.000Z</time>
      </trkpt>
      <trkpt lat="42.739053" lon="-83.076197">
        <ele>250.811252</ele>
        <time>2024-09-22T10:04:23.000Z</time>
      </trkpt>
      <trkpt lat="42.739059" lon="-83.075715">
        <ele>250.218985</ele>
        <time>2024-09-22T10:04:27.000Z</time>
      </trkpt>
      <trkpt lat="42.738978" lon="-83.07522">
        <ele>249.597211</ele>
        <time>2024-09-22T10:04:31.000Z</time>
      </trkpt>
      <trkpt lat="42.738794" lon="-83.074653">
        <ele>248.908516</ele>
        <time>2024-09-22T10:04:36.000Z</time>
      </trkpt>
      <trkpt lat="42.738421" lon="-83.073993">
        <ele>248.211888</ele>
        <time>2024-09-22T10:04:43.000Z</time>
      </trkpt>
      <trkpt lat="42.737219" lon="-83.072107">
        <ele>247.657337</ele>
        <time>2024-09-22T10:05:03.000Z</time>
      </trkpt>
      <trkpt lat="42.737079" lon="-83.071891">
        <ele>247.838761</ele>
        <time>2024-09-22T10:05:05.000Z</time>
      </trkpt>
      <trkpt lat="42.736526" lon="-83.071069">
        <ele>248.55627</ele>
        <time>2024-09-22T10:05:14.000Z</time>
      </trkpt>
      <trkpt lat="42.736367" lon="-83.070773">
        <ele>249.061076</ele>
        <time>2024-09-22T10:05:17.000Z</time>
      </trkpt>
      <trkpt lat="42.736195" lon="-83.070353">
        <ele>249.755038</ele>
        <time>2024-09-22T10:05:21.000Z</time>
      </trkpt>
      <trkpt lat="42.736077" lon="-83.069982">
        <ele>250.343483</ele>
        <time>2024-09-22T10:05:24.000Z</time>
      </trkpt>
      <trkpt lat="42.73601" lon="-83.069648">
        <ele>250.846738</ele>
        <time>2024-09-22T10:05:27.000Z</time>
      </trkpt>
      <trkpt lat="42.735974" lon="-83.069339">
        <ele>251.307435</ele>
        <time>2024-09-22T10:05:30.000Z</time>
      </trkpt>
      <trkpt lat="42.735978" lon="-83.068737">
        <ele>252.170756</ele>
        <time>2024-09-22T10:05:35.000Z</time>
      </trkpt>
      <trkpt lat="42.736213" lon="-83.066058">
        <ele>254.591594</ele>
        <time>2024-09-22T10:05:57.000Z</time>
      </trkpt>
      <trkpt lat="42.736268" lon="-83.065487">
        <ele>255.085537</ele>
        <time>2024-09-22T10:06:02.000Z</time>
      </trkpt>
      <trkpt lat="42.73631" lon="-83.064947">
        <ele>255.528575</ele>
        <time>2024-09-22T10:06:06.000Z</time>
      </trkpt>
      <trkpt lat="42.73631" lon="-83.064511">
        <ele>255.894247</ele>
        <time>2024-09-22T10:06:10.000Z</time>
      </trkpt>
      <trkpt lat="42.73627" lon="-83.064267">
        <ele>256.105544</ele>
        <time>2024-09-22T10:06:12.000Z</time>
      </trkpt>
      <trkpt lat="42.736188" lon="-83.063809">
        <ele>256.494794</ele>
        <time>2024-09-22T10:06:16.000Z</time>
      </trkpt>
      <trkpt lat="42.736035" lon="-83.063394">
        <ele>256.847292</ele>
        <time>2024-09-22T10:06:20.000Z</time>
      </trkpt>
      <trkpt lat="42.735836" lon="-83.063031">
        <ele>257.207489</ele>
        <time>2024-09-22T10:06:24.000Z</time>
      </trkpt>
      <trkpt lat="42.73571" lon="-83.062862">
        <ele>257.395426</ele>
        <time>2024-09-22T10:06:26.000Z</time>
      </trkpt>
      <trkpt lat="42.735445" lon="-83.062591">
        <ele>257.747013</ele>
        <time>2024-09-22T10:06:30.000Z</time>
      </trkpt>
      <trkpt lat="42.735166" lon="-83.062407">
        <ele>258.062128</ele>
        <time>2024-09-22T10:06:33.000Z</time>
      </trkpt>
      <trkpt lat="42.734785" lon="-83.062256">
        <ele>258.491968</ele>
        <time>2024-09-22T10:06:37.000Z</time>
      </trkpt>
      <trkpt lat="42.734533" lon="-83.062235">
        <ele>258.785447</ele>
        <time>2024-09-22T10:06:40.000Z</time>
      </trkpt>
      <trkpt lat="42.734248" lon="-83.062279">
        <ele>259.102742</ele>
        <time>2024-09-22T10:06:43.000Z</time>
      </trkpt>
      <trkpt lat="42.733443" lon="-83.062442">
        <ele>259.992868</ele>
        <time>2024-09-22T10:06:52.000Z</time>
      </trkpt>
      <trkpt lat="42.7333" lon="-83.062485">
        <ele>260.165815</ele>
        <time>2024-09-22T10:06:54.000Z</time>
      </trkpt>
      <trkpt lat="42.733217" lon="-83.062503">
        <ele>260.260081</ele>
        <time>2024-09-22T10:06:55.000Z</time>
      </trkpt>
      <trkpt lat="42.73318" lon="-83.06251">
        <ele>260.294904</ele>
        <time>2024-09-22T10:06:55.000Z</time>
      </trkpt>
      <trkpt lat="42.733013" lon="-83.06254">
        <ele>260.416394</ele>
        <time>2024-09-22T10:06:57.000Z</time>
      </trkpt>
      <trkpt lat="42.732768" lon="-83.062547">
        <ele>260.610256</ele>
        <time>2024-09-22T10:07:00.000Z</time>
      </trkpt>
      <trkpt lat="42.732479" lon="-83.062492">
        <ele>260.823999</ele>
        <time>2024-09-22T10:07:03.000Z</time>
      </trkpt>
      <trkpt lat="42.731651" lon="-83.062289">
        <ele>261.453886</ele>
        <time>2024-09-22T10:07:12.000Z</time>
      </trkpt>
      <trkpt lat="42.73136" lon="-83.062209">
        <ele>261.648096</ele>
        <time>2024-09-22T10:07:15.000Z</time>
      </trkpt>
      <trkpt lat="42.73115" lon="-83.062162">
        <ele>261.622122</ele>
        <time>2024-09-22T10:07:17.000Z</time>
      </trkpt>
      <trkpt lat="42.730813" lon="-83.062116">
        <ele>261.582735</ele>
        <time>2024-09-22T10:07:21.000Z</time>
      </trkpt>
      <trkpt lat="42.730544" lon="-83.062149">
        <ele>261.551205</ele>
        <time>2024-09-22T10:07:24.000Z</time>
      </trkpt>
      <trkpt lat="42.730284" lon="-83.062217">
        <ele>261.520183</ele>
        <time>2024-09-22T10:07:27.000Z</time>
      </trkpt>
      <trkpt lat="42.729992" lon="-83.062329">
        <ele>261.483511</ele>
        <time>2024-09-22T10:07:30.000Z</time>
      </trkpt>
      <trkpt lat="42.729724" lon="-83.062485">
        <ele>261.449176</ele>
        <time>2024-09-22T10:07:33.000Z</time>
      </trkpt>
      <trkpt lat="42.729456" lon="-83.062711">
        <ele>261.592188</ele>
        <time>2024-09-22T10:07:37.000Z</time>
      </trkpt>
      <trkpt lat="42.729201" lon="-83.062954">
        <ele>261.800201</ele>
        <time>2024-09-22T10:07:40.000Z</time>
      </trkpt>
      <trkpt lat="42.728961" lon="-83.063288">
        <ele>262.030179</ele>
        <time>2024-09-22T10:07:44.000Z</time>
      </trkpt>
      <trkpt lat="42.72878" lon="-83.06358">
        <ele>262.214565</ele>
        <time>2024-09-22T10:07:47.000Z</time>
      </trkpt>
      <trkpt lat="42.728631" lon="-83.063921">
        <ele>262.403991</ele>
        <time>2024-09-22T10:07:50.000Z</time>
      </trkpt>
      <trkpt lat="42.728557" lon="-83.064149">
        <ele>262.530954</ele>
        <time>2024-09-22T10:07:52.000Z</time>
      </trkpt>
      <trkpt lat="42.728436" lon="-83.064635">
        <ele>262.53815</ele>
        <time>2024-09-22T10:07:56.000Z</time>
      </trkpt>
      <trkpt lat="42.728364" lon="-83.064983">
        <ele>262.425234</ele>
        <time>2024-09-22T10:07:59.000Z</time>
      </trkpt>
      <trkpt lat="42.728338" lon="-83.06557">
        <ele>262.237516</ele>
        <time>2024-09-22T10:08:04.000Z</time>
      </trkpt>
      <trkpt lat="42.728374" lon="-83.066012">
        <ele>262.090896</ele>
        <time>2024-09-22T10:08:08.000Z</time>
      </trkpt>
      <trkpt lat="42.728447" lon="-83.066553">
        <ele>261.917963</ele>
        <time>2024-09-22T10:08:12.000Z</time>
      </trkpt>
      <trkpt lat="42.728732" lon="-83.067884">
        <ele>259.619739</ele>
        <time>2024-09-22T10:08:23.000Z</time>
      </trkpt>
      <trkpt lat="42.72881" lon="-83.06838">
        <ele>258.668963</ele>
        <time>2024-09-22T10:08:27.000Z</time>
      </trkpt>
      <trkpt lat="42.728834" lon="-83.068706">
        <ele>258.035946</ele>
        <time>2024-09-22T10:08:30.000Z</time>
      </trkpt>
      <trkpt lat="42.728847" lon="-83.069335">
        <ele>257.018975</ele>
        <time>2024-09-22T10:08:35.000Z</time>
      </trkpt>
      <trkpt lat="42.728806" lon="-83.069625">
        <ele>256.724481</ele>
        <time>2024-09-22T10:08:37.000Z</time>
      </trkpt>
      <trkpt lat="42.728682" lon="-83.070274">
        <ele>256.089791</ele>
        <time>2024-09-22T10:08:42.000Z</time>
      </trkpt>
      <trkpt lat="42.728535" lon="-83.070751">
        <ele>255.587468</ele>
        <time>2024-09-22T10:08:46.000Z</time>
      </trkpt>
      <trkpt lat="42.728363" lon="-83.071127">
        <ele>255.148495</ele>
        <time>2024-09-22T10:08:50.000Z</time>
      </trkpt>
      <trkpt lat="42.72815" lon="-83.071458">
        <ele>254.826695</ele>
        <time>2024-09-22T10:08:54.000Z</time>
      </trkpt>
      <trkpt lat="42.72792" lon="-83.071808">
        <ele>254.802845</ele>
        <time>2024-09-22T10:08:58.000Z</time>
      </trkpt>
      <trkpt lat="42.727609" lon="-83.072113">
        <ele>254.776999</ele>
        <time>2024-09-22T10:09:02.000Z</time>
      </trkpt>
      <trkpt lat="42.727344" lon="-83.07232">
        <ele>254.755044</ele>
        <time>2024-09-22T10:09:05.000Z</time>
      </trkpt>
      <trkpt lat="42.726475" lon="-83.072799">
        <ele>254.658413</ele>
        <time>2024-09-22T10:09:15.000Z</time>
      </trkpt>
      <trkpt lat="42.726026" lon="-83.073036">
        <ele>254.561479</ele>
        <time>2024-09-22T10:09:20.000Z</time>
      </trkpt>
      <trkpt lat="42.725514" lon="-83.073305">
        <ele>254.451146</ele>
        <time>2024-09-22T10:09:26.000Z</time>
      </trkpt>
      <trkpt lat="42.725376" lon="-83.07339">
        <ele>254.421217</ele>
        <time>2024-09-22T10:09:28.000Z</time>
      </trkpt>
      <trkpt lat="42.72518" lon="-83.07352">
        <ele>254.376278</ele>
        <time>2024-09-22T10:09:30.000Z</time>
      </trkpt>
      <trkpt lat="42.723914" lon="-83.074169">
        <ele>254.174003</ele>
        <time>2024-09-22T10:09:45.000Z</time>
      </trkpt>
      <trkpt lat="42.723395" lon="-83.074453">
        <ele>254.093712</ele>
        <time>2024-09-22T10:09:51.000Z</time>
      </trkpt>
      <trkpt lat="42.722495" lon="-83.074936">
        <ele>254.028061</ele>
        <time>2024-09-22T10:10:02.000Z</time>
      </trkpt>
      <trkpt lat="42.722129" lon="-83.075204">
        <ele>254.001084</ele>
        <time>2024-09-22T10:10:07.000Z</time>
      </trkpt>
      <trkpt lat="42.721783" lon="-83.075553">
        <ele>253.973987</ele>
        <time>2024-09-22T10:10:12.000Z</time>
      </trkpt>
      <trkpt lat="42.721578" lon="-83.075842">
        <ele>253.765301</ele>
        <time>2024-09-22T10:10:15.000Z</time>
      </trkpt>
      <trkpt lat="42.721346" lon="-83.076222">
        <ele>253.501561</ele>
        <time>2024-09-22T10:10:19.000Z</time>
      </trkpt>
      <trkpt lat="42.721121" lon="-83.07685">
        <ele>253.127783</ele>
        <time>2024-09-22T10:10:25.000Z</time>
      </trkpt>
      <trkpt lat="42.720743" lon="-83.078232">
        <ele>251.963648</ele>
        <time>2024-09-22T10:10:37.000Z</time>
      </trkpt>
      <trkpt lat="42.720708" lon="-83.07839">
        <ele>251.767784</ele>
        <time>2024-09-22T10:10:38.000Z</time>
      </trkpt>
      <trkpt lat="42.720556" lon="-83.078889">
        <ele>251.139252</ele>
        <time>2024-09-22T10:10:42.000Z</time>
      </trkpt>
      <trkpt lat="42.72009" lon="-83.080298">
        <ele>249.122999</ele>
        <time>2024-09-22T10:10:55.000Z</time>
      </trkpt>
      <trkpt lat="42.71987" lon="-83.080821">
        <ele>248.151558</ele>
        <time>2024-09-22T10:11:00.000Z</time>
      </trkpt>
      <trkpt lat="42.719672" lon="-83.081257">
        <ele>247.336915</ele>
        <time>2024-09-22T10:11:04.000Z</time>
      </trkpt>
      <trkpt lat="42.719445" lon="-83.08166">
        <ele>246.504805</ele>
        <time>2024-09-22T10:11:08.000Z</time>
      </trkpt>
      <trkpt lat="42.718957" lon="-83.082415">
        <ele>245.154206</ele>
        <time>2024-09-22T10:11:16.000Z</time>
      </trkpt>
      <trkpt lat="42.718485" lon="-83.08301">
        <ele>244.181278</ele>
        <time>2024-09-22T10:11:23.000Z</time>
      </trkpt>
      <trkpt lat="42.717623" lon="-83.083937">
        <ele>242.952634</ele>
        <time>2024-09-22T10:11:35.000Z</time>
      </trkpt>
      <trkpt lat="42.717575" lon="-83.084006">
        <ele>242.930614</ele>
        <time>2024-09-22T10:11:36.000Z</time>
      </trkpt>
      <trkpt lat="42.717097" lon="-83.084523">
        <ele>242.769254</ele>
        <time>2024-09-22T10:11:43.000Z</time>
      </trkpt>
      <trkpt lat="42.716605" lon="-83.085071">
        <ele>242.596454</ele>
        <time>2024-09-22T10:11:50.000Z</time>
      </trkpt>
      <trkpt lat="42.716354" lon="-83.085466">
        <ele>242.603224</ele>
        <time>2024-09-22T10:11:54.000Z</time>
      </trkpt>
      <trkpt lat="42.716054" lon="-83.086175">
        <ele>242.686724</ele>
        <time>2024-09-22T10:12:01.000Z</time>
      </trkpt>
      <trkpt lat="42.71588" lon="-83.086847">
        <ele>242.757524</ele>
        <time>2024-09-22T10:12:07.000Z</time>
      </trkpt>
      <trkpt lat="42.715814" lon="-83.087435">
        <ele>242.805624</ele>
        <time>2024-09-22T10:12:12.000Z</time>
      </trkpt>
      <trkpt lat="42.715829" lon="-83.087929">
        <ele>242.717666</ele>
        <time>2024-09-22T10:12:16.000Z</time>
      </trkpt>
      <trkpt lat="42.715892" lon="-83.088517">
        <ele>242.607305</ele>
        <time>2024-09-22T10:12:21.000Z</time>
      </trkpt>
      <trkpt lat="42.715992" lon="-83.088978">
        <ele>242.519788</ele>
        <time>2024-09-22T10:12:25.000Z</time>
      </trkpt>
      <trkpt lat="42.716064" lon="-83.089199">
        <ele>242.474353</ele>
        <time>2024-09-22T10:12:27.000Z</time>
      </trkpt>
      <trkpt lat="42.716574" lon="-83.090418">
        <ele>242.39737</ele>
        <time>2024-09-22T10:12:38.000Z</time>
      </trkpt>
      <trkpt lat="42.716681" lon="-83.090651">
        <ele>242.408805</ele>
        <time>2024-09-22T10:12:40.000Z</time>
      </trkpt>
      <trkpt lat="42.71747" lon="-83.092383">
        <ele>242.796898</ele>
        <time>2024-09-22T10:12:57.000Z</time>
      </trkpt>
      <trkpt lat="42.71794" lon="-83.09336">
        <ele>243.39749</ele>
        <time>2024-09-22T10:13:07.000Z</time>
      </trkpt>
      <trkpt lat="42.718387" lon="-83.094139">
        <ele>243.831603</ele>
        <time>2024-09-22T10:13:15.000Z</time>
      </trkpt>
      <trkpt lat="42.718402" lon="-83.094174">
        <ele>243.842444</ele>
        <time>2024-09-22T10:13:15.000Z</time>
      </trkpt>
      <trkpt lat="42.718408" lon="-83.09418">
        <ele>243.846069</ele>
        <time>2024-09-22T10:13:15.000Z</time>
      </trkpt>
      <trkpt lat="42.718414" lon="-83.094197">
        <ele>243.852171</ele>
        <time>2024-09-22T10:13:15.000Z</time>
      </trkpt>
      <trkpt lat="42.718524" lon="-83.094379">
        <ele>243.930247</ele>
        <time>2024-09-22T10:13:17.000Z</time>
      </trkpt>
      <trkpt lat="42.718839" lon="-83.094823">
        <ele>244.142619</ele>
        <time>2024-09-22T10:13:22.000Z</time>
      </trkpt>
      <trkpt lat="42.71949" lon="-83.095704">
        <ele>244.5522</ele>
        <time>2024-09-22T10:13:32.000Z</time>
      </trkpt>
      <trkpt lat="42.720001" lon="-83.096253">
        <ele>244.637632</ele>
        <time>2024-09-22T10:13:39.000Z</time>
      </trkpt>
      <trkpt lat="42.720637" lon="-83.096888">
        <ele>244.741727</ele>
        <time>2024-09-22T10:13:48.000Z</time>
      </trkpt>
      <trkpt lat="42.722651" lon="-83.098775">
        <ele>245.520796</ele>
        <time>2024-09-22T10:14:15.000Z</time>
      </trkpt>
      <trkpt lat="42.723223" lon="-83.099317">
        <ele>246.168316</ele>
        <time>2024-09-22T10:14:23.000Z</time>
      </trkpt>
      <trkpt lat="42.723829" lon="-83.100188">
        <ele>247.12342</ele>
        <time>2024-09-22T10:14:33.000Z</time>
      </trkpt>
      <trkpt lat="42.724113" lon="-83.100834">
        <ele>248.178053</ele>
        <time>2024-09-22T10:14:39.000Z</time>
      </trkpt>
      <trkpt lat="42.724808" lon="-83.10268">
        <ele>251.373468</ele>
        <time>2024-09-22T10:14:56.000Z</time>
      </trkpt>
      <trkpt lat="42.725122" lon="-83.103343">
        <ele>252.869356</ele>
        <time>2024-09-22T10:15:02.000Z</time>
      </trkpt>
      <trkpt lat="42.725321" lon="-83.103611">
        <ele>253.618331</ele>
        <time>2024-09-22T10:15:05.000Z</time>
      </trkpt>
      <trkpt lat="42.725555" lon="-83.103864">
        <ele>254.397597</ele>
        <time>2024-09-22T10:15:08.000Z</time>
      </trkpt>
      <trkpt lat="42.725962" lon="-83.104233">
        <ele>255.296788</ele>
        <time>2024-09-22T10:15:13.000Z</time>
      </trkpt>
      <trkpt lat="42.726299" lon="-83.104433">
        <ele>255.738125</ele>
        <time>2024-09-22T10:15:17.000Z</time>
      </trkpt>
      <trkpt lat="42.726995" lon="-83.104628">
        <ele>256.570437</ele>
        <time>2024-09-22T10:15:25.000Z</time>
      </trkpt>
      <trkpt lat="42.727348" lon="-83.104665">
        <ele>256.982161</ele>
        <time>2024-09-22T10:15:29.000Z</time>
      </trkpt>
      <trkpt lat="42.727684" lon="-83.104614">
        <ele>256.688548</ele>
        <time>2024-09-22T10:15:33.000Z</time>
      </trkpt>
      <trkpt lat="42.728089" lon="-83.104471">
        <ele>255.989545</ele>
        <time>2024-09-22T10:15:38.000Z</time>
      </trkpt>
      <trkpt lat="42.728423" lon="-83.104266">
        <ele>255.33646</ele>
        <time>2024-09-22T10:15:42.000Z</time>
      </trkpt>
      <trkpt lat="42.728902" lon="-83.103885">
        <ele>254.377659</ele>
        <time>2024-09-22T10:15:48.000Z</time>
      </trkpt>
      <trkpt lat="42.729306" lon="-83.103484">
        <ele>253.343691</ele>
        <time>2024-09-22T10:15:54.000Z</time>
      </trkpt>
      <trkpt lat="42.73015" lon="-83.102651">
        <ele>250.973296</ele>
        <time>2024-09-22T10:16:06.000Z</time>
      </trkpt>
      <trkpt lat="42.731481" lon="-83.101785">
        <ele>248.640402</ele>
        <time>2024-09-22T10:16:22.000Z</time>
      </trkpt>
      <trkpt lat="42.731497" lon="-83.101766">
        <ele>248.630711</ele>
        <time>2024-09-22T10:16:22.000Z</time>
      </trkpt>
      <trkpt lat="42.732044" lon="-83.101367">
        <ele>247.851874</ele>
        <time>2024-09-22T10:16:29.000Z</time>
      </trkpt>
      <trkpt lat="42.732237" lon="-83.101151">
        <ele>247.625547</ele>
        <time>2024-09-22T10:16:32.000Z</time>
      </trkpt>
      <trkpt lat="42.732635" lon="-83.100656">
        <ele>247.429069</ele>
        <time>2024-09-22T10:16:38.000Z</time>
      </trkpt>
      <trkpt lat="42.732852" lon="-83.100292">
        <ele>247.306285</ele>
        <time>2024-09-22T10:16:42.000Z</time>
      </trkpt>
      <trkpt lat="42.73303" lon="-83.099911">
        <ele>247.185736</ele>
        <time>2024-09-22T10:16:46.000Z</time>
      </trkpt>
      <trkpt lat="42.733289" lon="-83.099095">
        <ele>246.974959</ele>
        <time>2024-09-22T10:16:53.000Z</time>
      </trkpt>
      <trkpt lat="42.733372" lon="-83.098665">
        <ele>246.917263</ele>
        <time>2024-09-22T10:16:57.000Z</time>
      </trkpt>
      <trkpt lat="42.733411" lon="-83.098188">
        <ele>246.857215</ele>
        <time>2024-09-22T10:17:01.000Z</time>
      </trkpt>
      <trkpt lat="42.733424" lon="-83.097935">
        <ele>246.824521</ele>
        <time>2024-09-22T10:17:03.000Z</time>
      </trkpt>
      <trkpt lat="42.73342" lon="-83.097344">
        <ele>246.747619</ele>
        <time>2024-09-22T10:17:08.000Z</time>
      </trkpt>
      <trkpt lat="42.733368" lon="-83.096873">
        <ele>246.690476</ele>
        <time>2024-09-22T10:17:12.000Z</time>
      </trkpt>
      <trkpt lat="42.733161" lon="-83.096011">
        <ele>246.842493</ele>
        <time>2024-09-22T10:17:19.000Z</time>
      </trkpt>
      <trkpt lat="42.732861" lon="-83.094561">
        <ele>247.098264</ele>
        <time>2024-09-22T10:17:31.000Z</time>
      </trkpt>
      <trkpt lat="42.732744" lon="-83.093523">
        <ele>247.152665</ele>
        <time>2024-09-22T10:17:40.000Z</time>
      </trkpt>
      <trkpt lat="42.732751" lon="-83.093204">
        <ele>247.169057</ele>
        <time>2024-09-22T10:17:43.000Z</time>
      </trkpt>
      <trkpt lat="42.732788" lon="-83.092602">
        <ele>247.199375</ele>
        <time>2024-09-22T10:17:48.000Z</time>
      </trkpt>
      <trkpt lat="42.73291" lon="-83.091738">
        <ele>247.502974</ele>
        <time>2024-09-22T10:17:55.000Z</time>
      </trkpt>
      <trkpt lat="42.732953" lon="-83.091465">
        <ele>247.7175</ele>
        <time>2024-09-22T10:17:57.000Z</time>
      </trkpt>
      <trkpt lat="42.733325" lon="-83.089427">
        <ele>249.255725</ele>
        <time>2024-09-22T10:18:14.000Z</time>
      </trkpt>
      <trkpt lat="42.733451" lon="-83.087951">
        <ele>250.204112</ele>
        <time>2024-09-22T10:18:26.000Z</time>
      </trkpt>
      <trkpt lat="42.733449" lon="-83.08793">
        <ele>250.219596</ele>
        <time>2024-09-22T10:18:26.000Z</time>
      </trkpt>
      <trkpt lat="42.733456" lon="-83.087904">
        <ele>250.228617</ele>
        <time>2024-09-22T10:18:26.000Z</time>
      </trkpt>
      <trkpt lat="42.73346" lon="-83.087816">
        <ele>250.290012</ele>
        <time>2024-09-22T10:18:27.000Z</time>
      </trkpt>
      <trkpt lat="42.733464" lon="-83.087719">
        <ele>250.349305</ele>
        <time>2024-09-22T10:18:28.000Z</time>
      </trkpt>
      <trkpt lat="42.733466" lon="-83.087682">
        <ele>250.372522</ele>
        <time>2024-09-22T10:18:28.000Z</time>
      </trkpt>
      <trkpt lat="42.733475" lon="-83.08765">
        <ele>250.400195</ele>
        <time>2024-09-22T10:18:28.000Z</time>
      </trkpt>
      <trkpt lat="42.733797" lon="-83.084293">
        <ele>251.594325</ele>
        <time>2024-09-22T10:18:56.000Z</time>
      </trkpt>
      <trkpt lat="42.73389" lon="-83.08367">
        <ele>251.650788</ele>
        <time>2024-09-22T10:19:01.000Z</time>
      </trkpt>
      <trkpt lat="42.734053" lon="-83.083044">
        <ele>251.71046</ele>
        <time>2024-09-22T10:19:06.000Z</time>
      </trkpt>
      <trkpt lat="42.734261" lon="-83.082453">
        <ele>251.756388</ele>
        <time>2024-09-22T10:19:11.000Z</time>
      </trkpt>
      <trkpt lat="42.734505" lon="-83.081928">
        <ele>251.734472</ele>
        <time>2024-09-22T10:19:16.000Z</time>
      </trkpt>
      <trkpt lat="42.734867" lon="-83.081331">
        <ele>251.70717</ele>
        <time>2024-09-22T10:19:22.000Z</time>
      </trkpt>
      <trkpt lat="42.735348" lon="-83.080783">
        <ele>251.676806</ele>
        <time>2024-09-22T10:19:29.000Z</time>
      </trkpt>
      <trkpt lat="42.738171" lon="-83.078339">
        <ele>252.378296</ele>
        <time>2024-09-22T10:20:06.000Z</time>
      </trkpt>
      <trkpt lat="42.73828" lon="-83.078248">
        <ele>252.403238</ele>
        <time>2024-09-22T10:20:07.000Z</time>
      </trkpt>
      <trkpt lat="42.738569" lon="-83.077897">
        <ele>252.262032</ele>
        <time>2024-09-22T10:20:11.000Z</time>
      </trkpt>
      <trkpt lat="42.738763" lon="-83.077536">
        <ele>251.93174</ele>
        <time>2024-09-22T10:20:15.000Z</time>
      </trkpt>
      <trkpt lat="42.738894" lon="-83.077147">
        <ele>251.609375</ele>
        <time>2024-09-22T10:20:18.000Z</time>
      </trkpt>
      <trkpt lat="42.738988" lon="-83.076752">
        <ele>251.311995</ele>
        <time>2024-09-22T10:20:21.000Z</time>
      </trkpt>
      <trkpt lat="42.739012" lon="-83.076595">
        <ele>251.195358</ele>
        <time>2024-09-22T10:20:22.000Z</time>
      </trkpt>
      <trkpt lat="42.739063" lon="-83.076204">
        <ele>250.904374</ele>
        <time>2024-09-22T10:20:25.000Z</time>
      </trkpt>
      <trkpt lat="42.739052" lon="-83.075711">
        <ele>250.472912</ele>
        <time>2024-09-22T10:20:29.000Z</time>
      </trkpt>
      <trkpt lat="42.738978" lon="-83.075208">
        <ele>249.820406</ele>
        <time>2024-09-22T10:20:33.000Z</time>
      </trkpt>
      <trkpt lat="42.738808" lon="-83.074661">
        <ele>249.044869</ele>
        <time>2024-09-22T10:20:38.000Z</time>
      </trkpt>
      <trkpt lat="42.738427" lon="-83.073994">
        <ele>247.962296</ele>
        <time>2024-09-22T10:20:45.000Z</time>
      </trkpt>
      <trkpt lat="42.737221" lon="-83.072108">
        <ele>247.330856</ele>
        <time>2024-09-22T10:21:05.000Z</time>
      </trkpt>
      <trkpt lat="42.737083" lon="-83.071891">
        <ele>247.306073</ele>
        <time>2024-09-22T10:21:07.000Z</time>
      </trkpt>
      <trkpt lat="42.736526" lon="-83.071057">
        <ele>248.816415</ele>
        <time>2024-09-22T10:21:16.000Z</time>
      </trkpt>
      <trkpt lat="42.736356" lon="-83.070775">
        <ele>249.297261</ele>
        <time>2024-09-22T10:21:19.000Z</time>
      </trkpt>
      <trkpt lat="42.736202" lon="-83.070367">
        <ele>249.943037</ele>
        <time>2024-09-22T10:21:23.000Z</time>
      </trkpt>
      <trkpt lat="42.736089" lon="-83.069983">
        <ele>250.490642</ele>
        <time>2024-09-22T10:21:26.000Z</time>
      </trkpt>
      <trkpt lat="42.736011" lon="-83.069649">
        <ele>250.903588</ele>
        <time>2024-09-22T10:21:29.000Z</time>
      </trkpt>
      <trkpt lat="42.735974" lon="-83.069336">
        <ele>251.261099</ele>
        <time>2024-09-22T10:21:32.000Z</time>
      </trkpt>
      <trkpt lat="42.735975" lon="-83.068737">
        <ele>251.948549</ele>
        <time>2024-09-22T10:21:37.000Z</time>
      </trkpt>
      <trkpt lat="42.736221" lon="-83.066066">
        <ele>254.584363</ele>
        <time>2024-09-22T10:21:59.000Z</time>
      </trkpt>
      <trkpt lat="42.736271" lon="-83.065486">
        <ele>255.081842</ele>
        <time>2024-09-22T10:22:04.000Z</time>
      </trkpt>
      <trkpt lat="42.736294" lon="-83.064954">
        <ele>255.526293</ele>
        <time>2024-09-22T10:22:08.000Z</time>
      </trkpt>
      <trkpt lat="42.736296" lon="-83.064519">
        <ele>255.884518</ele>
        <time>2024-09-22T10:22:12.000Z</time>
      </trkpt>
      <trkpt lat="42.736276" lon="-83.064265">
        <ele>256.091533</ele>
        <time>2024-09-22T10:22:14.000Z</time>
      </trkpt>
      <trkpt lat="42.736186" lon="-83.063804">
        <ele>256.479687</ele>
        <time>2024-09-22T10:22:18.000Z</time>
      </trkpt>
      <trkpt lat="42.736042" lon="-83.063406">
        <ele>256.853616</ele>
        <time>2024-09-22T10:22:22.000Z</time>
      </trkpt>
      <trkpt lat="42.735832" lon="-83.063021">
        <ele>257.235696</ele>
        <time>2024-09-22T10:22:26.000Z</time>
      </trkpt>
      <trkpt lat="42.735714" lon="-83.062857">
        <ele>257.435087</ele>
        <time>2024-09-22T10:22:28.000Z</time>
      </trkpt>
      <trkpt lat="42.735446" lon="-83.062582">
        <ele>257.778489</ele>
        <time>2024-09-22T10:22:32.000Z</time>
      </trkpt>
      <trkpt lat="42.735178" lon="-83.062417">
        <ele>258.083123</ele>
        <time>2024-09-22T10:22:35.000Z</time>
      </trkpt>
      <trkpt lat="42.734788" lon="-83.062253">
        <ele>258.489975</ele>
        <time>2024-09-22T10:22:40.000Z</time>
      </trkpt>
      <trkpt lat="42.734515" lon="-83.062227">
        <ele>258.759868</ele>
        <time>2024-09-22T10:22:43.000Z</time>
      </trkpt>
      <trkpt lat="42.734244" lon="-83.062265">
        <ele>259.051647</ele>
        <time>2024-09-22T10:22:46.000Z</time>
      </trkpt>
      <trkpt lat="42.733442" lon="-83.062437">
        <ele>259.915433</ele>
        <time>2024-09-22T10:22:55.000Z</time>
      </trkpt>
      <trkpt lat="42.733284" lon="-83.062473">
        <ele>260.087257</ele>
        <time>2024-09-22T10:22:57.000Z</time>
      </trkpt>
      <trkpt lat="42.733206" lon="-83.062496">
        <ele>260.180918</ele>
        <time>2024-09-22T10:22:58.000Z</time>
      </trkpt>
      <trkpt lat="42.733175" lon="-83.062502">
        <ele>260.215533</ele>
        <time>2024-09-22T10:22:58.000Z</time>
      </trkpt>
      <trkpt lat="42.733018" lon="-83.06254">
        <ele>260.390619</ele>
        <time>2024-09-22T10:23:00.000Z</time>
      </trkpt>
      <trkpt lat="42.732755" lon="-83.062542">
        <ele>260.674774</ele>
        <time>2024-09-22T10:23:03.000Z</time>
      </trkpt>
      <trkpt lat="42.732486" lon="-83.062503">
        <ele>260.988071</ele>
        <time>2024-09-22T10:23:06.000Z</time>
      </trkpt>
      <trkpt lat="42.731651" lon="-83.062304">
        <ele>261.377764</ele>
        <time>2024-09-22T10:23:15.000Z</time>
      </trkpt>
      <trkpt lat="42.731352" lon="-83.06222">
        <ele>261.425238</ele>
        <time>2024-09-22T10:23:18.000Z</time>
      </trkpt>
      <trkpt lat="42.731139" lon="-83.062167">
        <ele>261.459334</ele>
        <time>2024-09-22T10:23:20.000Z</time>
      </trkpt>
      <trkpt lat="42.730811" lon="-83.062131">
        <ele>261.511007</ele>
        <time>2024-09-22T10:23:24.000Z</time>
      </trkpt>
      <trkpt lat="42.730545" lon="-83.06214">
        <ele>261.552376</ele>
        <time>2024-09-22T10:23:27.000Z</time>
      </trkpt>
      <trkpt lat="42.730285" lon="-83.062207">
        <ele>261.595401</ele>
        <time>2024-09-22T10:23:30.000Z</time>
      </trkpt>
      <trkpt lat="42.729996" lon="-83.062346">
        <ele>261.648488</ele>
        <time>2024-09-22T10:23:33.000Z</time>
      </trkpt>
      <trkpt lat="42.729727" lon="-83.062501">
        <ele>261.69817</ele>
        <time>2024-09-22T10:23:36.000Z</time>
      </trkpt>
      <trkpt lat="42.729455" lon="-83.062701">
        <ele>261.753497</ele>
        <time>2024-09-22T10:23:39.000Z</time>
      </trkpt>
      <trkpt lat="42.7292" lon="-83.062959">
        <ele>261.807312</ele>
        <time>2024-09-22T10:23:43.000Z</time>
      </trkpt>
      <trkpt lat="42.728952" lon="-83.063288">
        <ele>261.86681</ele>
        <time>2024-09-22T10:23:47.000Z</time>
      </trkpt>
      <trkpt lat="42.72879" lon="-83.063576">
        <ele>261.991018</ele>
        <time>2024-09-22T10:23:50.000Z</time>
      </trkpt>
      <trkpt lat="42.728634" lon="-83.063919">
        <ele>262.151642</ele>
        <time>2024-09-22T10:23:53.000Z</time>
      </trkpt>
      <trkpt lat="42.728565" lon="-83.064146">
        <ele>262.25929</ele>
        <time>2024-09-22T10:23:55.000Z</time>
      </trkpt>
      <trkpt lat="42.728436" lon="-83.064643">
        <ele>262.477797</ele>
        <time>2024-09-22T10:23:59.000Z</time>
      </trkpt>
      <trkpt lat="42.728375" lon="-83.064983">
        <ele>262.623305</ele>
        <time>2024-09-22T10:24:02.000Z</time>
      </trkpt>
      <trkpt lat="42.728331" lon="-83.065569">
        <ele>262.865196</ele>
        <time>2024-09-22T10:24:07.000Z</time>
      </trkpt>
      <trkpt lat="42.728372" lon="-83.06602">
        <ele>262.359743</ele>
        <time>2024-09-22T10:24:11.000Z</time>
      </trkpt>
      <trkpt lat="42.728455" lon="-83.066542">
        <ele>261.593294</ele>
        <time>2024-09-22T10:24:15.000Z</time>
      </trkpt>
      <trkpt lat="42.728715" lon="-83.06788">
        <ele>259.608379</ele>
        <time>2024-09-22T10:24:26.000Z</time>
      </trkpt>
      <trkpt lat="42.728799" lon="-83.068369">
        <ele>258.826148</ele>
        <time>2024-09-22T10:24:30.000Z</time>
      </trkpt>
      <trkpt lat="42.728828" lon="-83.068695">
        <ele>258.287123</ele>
        <time>2024-09-22T10:24:33.000Z</time>
      </trkpt>
      <trkpt lat="42.728834" lon="-83.06933">
        <ele>257.272148</ele>
        <time>2024-09-22T10:24:38.000Z</time>
      </trkpt>
      <trkpt lat="42.728811" lon="-83.069634">
        <ele>256.780197</ele>
        <time>2024-09-22T10:24:40.000Z</time>
      </trkpt>
      <trkpt lat="42.72868" lon="-83.070271">
        <ele>255.719922</ele>
        <time>2024-09-22T10:24:45.000Z</time>
      </trkpt>
      <trkpt lat="42.728537" lon="-83.07074">
        <ele>255.342368</ele>
        <time>2024-09-22T10:24:49.000Z</time>
      </trkpt>
      <trkpt lat="42.728349" lon="-83.071116">
        <ele>255.210896</ele>
        <time>2024-09-22T10:24:53.000Z</time>
      </trkpt>
      <trkpt lat="42.728147" lon="-83.07147">
        <ele>255.085595</ele>
        <time>2024-09-22T10:24:57.000Z</time>
      </trkpt>
      <trkpt lat="42.727916" lon="-83.071801">
        <ele>254.948962</ele>
        <time>2024-09-22T10:25:01.000Z</time>
      </trkpt>
      <trkpt lat="42.727624" lon="-83.072115">
        <ele>254.800903</ele>
        <time>2024-09-22T10:25:05.000Z</time>
      </trkpt>
      <trkpt lat="42.727329" lon="-83.072314">
        <ele>254.716527</ele>
        <time>2024-09-22T10:25:09.000Z</time>
      </trkpt>
      <trkpt lat="42.726475" lon="-83.072796">
        <ele>254.609038</ele>
        <time>2024-09-22T10:25:19.000Z</time>
      </trkpt>
      <trkpt lat="42.726026" lon="-83.073029">
        <ele>254.553105</ele>
        <time>2024-09-22T10:25:24.000Z</time>
      </trkpt>
      <trkpt lat="42.725506" lon="-83.07332">
        <ele>254.461908</ele>
        <time>2024-09-22T10:25:30.000Z</time>
      </trkpt>
      <trkpt lat="42.725381" lon="-83.073386">
        <ele>254.431497</ele>
        <time>2024-09-22T10:25:31.000Z</time>
      </trkpt>
      <trkpt lat="42.725179" lon="-83.073516">
        <ele>254.385791</ele>
        <time>2024-09-22T10:25:33.000Z</time>
      </trkpt>
      <trkpt lat="42.723924" lon="-83.074171">
        <ele>254.150974</ele>
        <time>2024-09-22T10:25:48.000Z</time>
      </trkpt>
      <trkpt lat="42.723391" lon="-83.074458">
        <ele>254.132559</ele>
        <time>2024-09-22T10:25:54.000Z</time>
      </trkpt>
      <trkpt lat="42.72249" lon="-83.074943">
        <ele>254.100421</ele>
        <time>2024-09-22T10:26:05.000Z</time>
      </trkpt>
      <trkpt lat="42.722115" lon="-83.075197">
        <ele>253.966002</ele>
        <time>2024-09-22T10:26:10.000Z</time>
      </trkpt>
      <trkpt lat="42.721781" lon="-83.075552">
        <ele>253.820264</ele>
        <time>2024-09-22T10:26:15.000Z</time>
      </trkpt>
      <trkpt lat="42.721572" lon="-83.075843">
        <ele>253.714725</ele>
        <time>2024-09-22T10:26:18.000Z</time>
      </trkpt>
      <trkpt lat="42.721351" lon="-83.07624">
        <ele>253.590503</ele>
        <time>2024-09-22T10:26:22.000Z</time>
      </trkpt>
      <trkpt lat="42.721123" lon="-83.076843">
        <ele>253.255083</ele>
        <time>2024-09-22T10:26:28.000Z</time>
      </trkpt>
      <trkpt lat="42.72074" lon="-83.078224">
        <ele>251.927033</ele>
        <time>2024-09-22T10:26:40.000Z</time>
      </trkpt>
      <trkpt lat="42.720702" lon="-83.078379">
        <ele>251.776306</ele>
        <time>2024-09-22T10:26:41.000Z</time>
      </trkpt>
      <trkpt lat="42.720572" lon="-83.078878">
        <ele>251.292646</ele>
        <time>2024-09-22T10:26:45.000Z</time>
      </trkpt>
      <trkpt lat="42.720089" lon="-83.080296">
        <ele>249.031302</ele>
        <time>2024-09-22T10:26:58.000Z</time>
      </trkpt>
      <trkpt lat="42.719868" lon="-83.080829">
        <ele>248.157156</ele>
        <time>2024-09-22T10:27:03.000Z</time>
      </trkpt>
      <trkpt lat="42.719668" lon="-83.08125">
        <ele>247.413557</ele>
        <time>2024-09-22T10:27:07.000Z</time>
      </trkpt>
      <trkpt lat="42.719446" lon="-83.08166">
        <ele>246.635316</ele>
        <time>2024-09-22T10:27:11.000Z</time>
      </trkpt>
      <trkpt lat="42.718965" lon="-83.08242">
        <ele>245.103932</ele>
        <time>2024-09-22T10:27:19.000Z</time>
      </trkpt>
      <trkpt lat="42.718496" lon="-83.083013">
        <ele>243.910581</ele>
        <time>2024-09-22T10:27:26.000Z</time>
      </trkpt>
      <trkpt lat="42.71763" lon="-83.083944">
        <ele>243.062797</ele>
        <time>2024-09-22T10:27:38.000Z</time>
      </trkpt>
      <trkpt lat="42.717564" lon="-83.084016">
        <ele>242.999999</ele>
        <time>2024-09-22T10:27:39.000Z</time>
      </trkpt>
      <trkpt lat="42.717104" lon="-83.084512">
        <ele>242.602285</ele>
        <time>2024-09-22T10:27:46.000Z</time>
      </trkpt>
      <trkpt lat="42.716603" lon="-83.085067">
        <ele>242.647581</ele>
        <time>2024-09-22T10:27:53.000Z</time>
      </trkpt>
      <trkpt lat="42.716349" lon="-83.085478">
        <ele>242.674917</ele>
        <time>2024-09-22T10:27:57.000Z</time>
      </trkpt>
      <trkpt lat="42.716053" lon="-83.08618">
        <ele>242.717677</ele>
        <time>2024-09-22T10:28:04.000Z</time>
      </trkpt>
      <trkpt lat="42.715879" lon="-83.08685">
        <ele>242.70503</ele>
        <time>2024-09-22T10:28:10.000Z</time>
      </trkpt>
      <trkpt lat="42.715824" lon="-83.087436">
        <ele>242.684869</ele>
        <time>2024-09-22T10:28:15.000Z</time>
      </trkpt>
      <trkpt lat="42.715827" lon="-83.087928">
        <ele>242.66884</ele>
        <time>2024-09-22T10:28:19.000Z</time>
      </trkpt>
      <trkpt lat="42.71588" lon="-83.088518">
        <ele>242.648704</ele>
        <time>2024-09-22T10:28:24.000Z</time>
      </trkpt>
      <trkpt lat="42.715992" lon="-83.088976">
        <ele>242.598539</ele>
        <time>2024-09-22T10:28:28.000Z</time>
      </trkpt>
      <trkpt lat="42.716072" lon="-83.089196">
        <ele>242.560314</ele>
        <time>2024-09-22T10:28:30.000Z</time>
      </trkpt>
      <trkpt lat="42.716577" lon="-83.090408">
        <ele>242.343575</ele>
        <time>2024-09-22T10:28:41.000Z</time>
      </trkpt>
      <trkpt lat="42.716685" lon="-83.090649">
        <ele>242.300398</ele>
        <time>2024-09-22T10:28:43.000Z</time>
      </trkpt>
      <trkpt lat="42.717456" lon="-83.09237">
        <ele>242.841394</ele>
        <time>2024-09-22T10:28:59.000Z</time>
      </trkpt>
      <trkpt lat="42.717955" lon="-83.093373">
        <ele>243.317228</ele>
        <time>2024-09-22T10:29:09.000Z</time>
      </trkpt>
      <trkpt lat="42.718396" lon="-83.094145">
        <ele>243.803179</ele>
        <time>2024-09-22T10:29:17.000Z</time>
      </trkpt>
      <trkpt lat="42.7184" lon="-83.094176">
        <ele>243.818694</ele>
        <time>2024-09-22T10:29:17.000Z</time>
      </trkpt>
      <trkpt lat="42.718406" lon="-83.094174">
        <ele>243.823874</ele>
        <time>2024-09-22T10:29:17.000Z</time>
      </trkpt>
      <trkpt lat="42.718422" lon="-83.094191">
        <ele>243.832632</ele>
        <time>2024-09-22T10:29:17.000Z</time>
      </trkpt>
      <trkpt lat="42.718512" lon="-83.094363">
        <ele>243.94448</ele>
        <time>2024-09-22T10:29:19.000Z</time>
      </trkpt>
      <trkpt lat="42.718834" lon="-83.094814">
        <ele>244.248672</ele>
        <time>2024-09-22T10:29:24.000Z</time>
      </trkpt>
      <trkpt lat="42.719504" lon="-83.095706">
        <ele>244.478208</ele>
        <time>2024-09-22T10:29:34.000Z</time>
      </trkpt>
      <trkpt lat="42.719996" lon="-83.096252">
        <ele>244.630859</ele>
        <time>2024-09-22T10:29:41.000Z</time>
      </trkpt>
      <trkpt lat="42.720635" lon="-83.096897">
        <ele>244.769284</ele>
        <time>2024-09-22T10:29:50.000Z</time>
      </trkpt>
      <trkpt lat="42.722662" lon="-83.098769">
        <ele>245.537669</ele>
        <time>2024-09-22T10:30:17.000Z</time>
      </trkpt>
      <trkpt lat="42.72322" lon="-83.099321">
        <ele>245.96291</ele>
        <time>2024-09-22T10:30:25.000Z</time>
      </trkpt>
      <trkpt lat="42.723824" lon="-83.100199">
        <ele>247.282909</ele>
        <time>2024-09-22T10:30:35.000Z</time>
      </trkpt>
      <trkpt lat="42.724109" lon="-83.100833">
        <ele>248.117246</ele>
        <time>2024-09-22T10:30:41.000Z</time>
      </trkpt>
      <trkpt lat="42.724809" lon="-83.102679">
        <ele>251.454198</ele>
        <time>2024-09-22T10:30:58.000Z</time>
      </trkpt>
      <trkpt lat="42.725123" lon="-83.103343">
        <ele>252.790645</ele>
        <time>2024-09-22T10:31:04.000Z</time>
      </trkpt>
      <trkpt lat="42.72532" lon="-83.103612">
        <ele>253.4412</ele>
        <time>2024-09-22T10:31:07.000Z</time>
      </trkpt>
      <trkpt lat="42.725557" lon="-83.10386">
        <ele>254.118057</ele>
        <time>2024-09-22T10:31:10.000Z</time>
      </trkpt>
      <trkpt lat="42.725965" lon="-83.104216">
        <ele>255.226736</ele>
        <time>2024-09-22T10:31:15.000Z</time>
      </trkpt>
      <trkpt lat="42.726294" lon="-83.104433">
        <ele>256.079477</ele>
        <time>2024-09-22T10:31:19.000Z</time>
      </trkpt>
      <trkpt lat="42.727" lon="-83.104619">
        <ele>256.632469</ele>
        <time>2024-09-22T10:31:27.000Z</time>
      </trkpt>
      <trkpt lat="42.727353" lon="-83.10465">
        <ele>256.441887</ele>
        <time>2024-09-22T10:31:31.000Z</time>
      </trkpt>
      <trkpt lat="42.727681" lon="-83.104618">
        <ele>256.253102</ele>
        <time>2024-09-22T10:31:35.000Z</time>
      </trkpt>
      <trkpt lat="42.728077" lon="-83.104477">
        <ele>256.032997</ele>
        <time>2024-09-22T10:31:40.000Z</time>
      </trkpt>
      <trkpt lat="42.728433" lon="-83.104266">
        <ele>255.730325</ele>
        <time>2024-09-22T10:31:44.000Z</time>
      </trkpt>
      <trkpt lat="42.728911" lon="-83.103881">
        <ele>254.41624</ele>
        <time>2024-09-22T10:31:50.000Z</time>
      </trkpt>
      <trkpt lat="42.72931" lon="-83.103468">
        <ele>253.217946</ele>
        <time>2024-09-22T10:31:56.000Z</time>
      </trkpt>
      <trkpt lat="42.730155" lon="-83.102662">
        <ele>250.98003</ele>
        <time>2024-09-22T10:32:07.000Z</time>
      </trkpt>
      <trkpt lat="42.731477" lon="-83.101785">
        <ele>248.406679</ele>
        <time>2024-09-22T10:32:23.000Z</time>
      </trkpt>
      <trkpt lat="42.731493" lon="-83.101764">
        <ele>248.401584</ele>
        <time>2024-09-22T10:32:23.000Z</time>
      </trkpt>
      <trkpt lat="42.73205" lon="-83.101362">
        <ele>247.991685</ele>
        <time>2024-09-22T10:32:30.000Z</time>
      </trkpt>
      <trkpt lat="42.732254" lon="-83.101161">
        <ele>247.830595</ele>
        <time>2024-09-22T10:32:33.000Z</time>
      </trkpt>
      <trkpt lat="42.732637" lon="-83.100649">
        <ele>247.482837</ele>
        <time>2024-09-22T10:32:39.000Z</time>
      </trkpt>
      <trkpt lat="42.732839" lon="-83.1003">
        <ele>247.265512</ele>
        <time>2024-09-22T10:32:43.000Z</time>
      </trkpt>
      <trkpt lat="42.733029" lon="-83.09992">
        <ele>247.153157</ele>
        <time>2024-09-22T10:32:47.000Z</time>
      </trkpt>
      <trkpt lat="42.733298" lon="-83.099104">
        <ele>246.92972</ele>
        <time>2024-09-22T10:32:54.000Z</time>
      </trkpt>
      <trkpt lat="42.733372" lon="-83.098663">
        <ele>246.818246</ele>
        <time>2024-09-22T10:32:58.000Z</time>
      </trkpt>
      <trkpt lat="42.733411" lon="-83.09819">
        <ele>246.702202</ele>
        <time>2024-09-22T10:33:02.000Z</time>
      </trkpt>
      <trkpt lat="42.733428" lon="-83.097935">
        <ele>246.665746</ele>
        <time>2024-09-22T10:33:04.000Z</time>
      </trkpt>
      <trkpt lat="42.733408" lon="-83.097342">
        <ele>246.752235</ele>
        <time>2024-09-22T10:33:09.000Z</time>
      </trkpt>
      <trkpt lat="42.733363" lon="-83.096881">
        <ele>246.821181</ele>
        <time>2024-09-22T10:33:13.000Z</time>
      </trkpt>
      <trkpt lat="42.733161" lon="-83.096023">
        <ele>246.951293</ele>
        <time>2024-09-22T10:33:20.000Z</time>
      </trkpt>
      <trkpt lat="42.732857" lon="-83.094563">
        <ele>247.028016</ele>
        <time>2024-09-22T10:33:32.000Z</time>
      </trkpt>
      <trkpt lat="42.73274" lon="-83.093521">
        <ele>247.044937</ele>
        <time>2024-09-22T10:33:41.000Z</time>
      </trkpt>
      <trkpt lat="42.732739" lon="-83.093191">
        <ele>247.062036</ele>
        <time>2024-09-22T10:33:44.000Z</time>
      </trkpt>
      <trkpt lat="42.73278" lon="-83.092592">
        <ele>247.310021</ele>
        <time>2024-09-22T10:33:49.000Z</time>
      </trkpt>
      <trkpt lat="42.732897" lon="-83.091739">
        <ele>247.662983</ele>
        <time>2024-09-22T10:33:56.000Z</time>
      </trkpt>
      <trkpt lat="42.732958" lon="-83.091462">
        <ele>247.780282</ele>
        <time>2024-09-22T10:33:58.000Z</time>
      </trkpt>
      <trkpt lat="42.733317" lon="-83.089424">
        <ele>248.913925</ele>
        <time>2024-09-22T10:34:15.000Z</time>
      </trkpt>
      <trkpt lat="42.733473" lon="-83.087821">
        <ele>249.667397601</ele>
        <time>2024-09-22T10:34:28.000Z</time>
      </trkpt>
      <trkpt lat="42.733358" lon="-83.087809">
        <ele>249.740565705</ele>
        <time>2024-09-22T10:34:29.000Z</time>
      </trkpt>
      <trkpt lat="42.732938" lon="-83.087761">
        <ele>250.007944019</ele>
        <time>2024-09-22T10:34:34.000Z</time>
      </trkpt>
      <trkpt lat="42.732824" lon="-83.087711">
        <ele>250.083924071</ele>
        <time>2024-09-22T10:34:35.000Z</time>
      </trkpt>
      <trkpt lat="42.732229" lon="-83.087728">
        <ele>250.461465522</ele>
        <time>2024-09-22T10:34:42.000Z</time>
      </trkpt>
      <trkpt lat="42.731749" lon="-83.087748">
        <ele>250.766112309</ele>
        <time>2024-09-22T10:34:47.000Z</time>
      </trkpt>
    </trkseg>
  </trk>
</gpx>

<!--
Performance optimized by W3 Total Cache. Learn more: https://www.boldgrid.com/w3-total-cache/?utm_source=w3tc&utm_medium=footer_comment&utm_campaign=free_plugin

Page Caching using Disk: Enhanced{w3tc_pagecache_reject_reason} 

Served from: www.aquabike.world @ 2026-05-10 21:34:58 by W3 Total Cache
-->